Observation data for Endee on 06/15/2019      Previous  Date  Next       Current Mesonet Observations  Soil Data  Daily Summary Page  Observations in Plain Language
KEN1 150500Z 22010KT 24/01 A298 RMK A01 T02370012  RH  023%=      5-min Rain = 0
KEN1 150501Z 22009KT 24/01 A298 RMK A01 T02360012  RH  023%=      5-min Rain = 0
KEN1 150502Z 22009KT 24/01 A298 RMK A01 T02350012  RH  023%=      5-min Rain = 0
KEN1 150503Z 21009KT 24/01 A298 RMK A01 T02350011  RH  023%=      5-min Rain = 0
KEN1 150504Z 21009KT 24/01 A298 RMK A01 T02350010  RH  023%=      5-min Rain = 0
KEN1 150505Z 21009KT 24/01 A298 RMK A01 T02350010  RH  023%=      5-min Rain = 0
KEN1 150506Z 21010KT 24/01 A298 RMK A01 T02360009  RH  022%=      5-min Rain = 0
KEN1 150507Z 21010KT 24/01 A298 RMK A01 T02360009  RH  022%=      5-min Rain = 0
KEN1 150508Z 21011KT 24/01 A298 RMK A01 T02370008  RH  022%=      5-min Rain = 0
KEN1 150509Z 21011KT 24/01 A298 RMK A01 T02380008  RH  022%=      5-min Rain = 0
KEN1 150510Z 21011KT 24/01 A298 RMK A01 T02390007  RH  022%=      5-min Rain = 0
KEN1 150511Z 21010KT 24/01 A298 RMK A01 T02400007  RH  022%=      5-min Rain = 0
KEN1 150512Z 21010KT 24/01 A298 RMK A01 T02400007  RH  022%=      5-min Rain = 0
KEN1 150513Z 21011KT 24/01 A298 RMK A01 T02400007  RH  021%=      5-min Rain = 0
KEN1 150514Z 21012KT 24/01 A298 RMK A01 T02400005  RH  021%=      5-min Rain = 0
KEN1 150515Z 21011KT 24/00 A298 RMK A01 T02420004  RH  021%=      5-min Rain = 0
KEN1 150516Z 21012KT 24/00 A298 RMK A01 T02430004  RH  021%=      5-min Rain = 0
KEN1 150517Z 21013KT 24/00 A298 RMK A01 T02440004  RH  021%=      5-min Rain = 0
KEN1 150518Z 21013KT 25/00 A298 RMK A01 T02450004  RH  020%=      5-min Rain = 0
KEN1 150519Z 21012KT 25/00 A298 RMK A01 T02450003  RH  020%=      5-min Rain = 0
KEN1 150520Z 21012KT 25/00 A298 RMK A01 T02460003  RH  020%=      5-min Rain = 0
KEN1 150521Z 21012KT 25/00 A298 RMK A01 T02460003  RH  020%=      5-min Rain = 0
KEN1 150522Z 21012KT 25/00 A298 RMK A01 T02460003  RH  020%=      5-min Rain = 0
KEN1 150523Z 21012KT 25/00 A298 RMK A01 T02460003  RH  020%=      5-min Rain = 0
KEN1 150524Z 21012KT 25/00 A298 RMK A01 T02450002  RH  020%=      5-min Rain = 0
KEN1 150525Z 21012KT 25/00 A298 RMK A01 T02460002  RH  020%=      5-min Rain = 0
KEN1 150526Z 21013KT 25/00 A298 RMK A01 T02460002  RH  020%=      5-min Rain = 0
KEN1 150527Z 21014KT 25/00 A298 RMK A01 T02470002  RH  020%=      5-min Rain = 0
KEN1 150528Z 21014KT 25/00 A298 RMK A01 T02470002  RH  020%=      5-min Rain = 0
KEN1 150529Z 21015KT 25/00 A298 RMK A01 T02470001  RH  020%=      5-min Rain = 0
KEN1 150530Z 21015KT 25/00 A298 RMK A01 T02480000  RH  020%=      5-min Rain = 0
KEN1 150531Z 21016KT 25/00 A298 RMK A01 T024900-0  RH  019%=      5-min Rain = 0
KEN1 150532Z 21014KT 25/M00 A298 RMK A01 T02501001  RH  019%=      5-min Rain = 0
KEN1 150533Z 21013KT 25/00 A298 RMK A01 T02510000  RH  019%=      5-min Rain = 0
KEN1 150534Z 21015KT 25/00 A298 RMK A01 T02510000  RH  019%=      5-min Rain = 0
KEN1 150535Z 21015KT 25/M00 A298 RMK A01 T02501001  RH  019%=      5-min Rain = 0
KEN1 150536Z 21013KT 25/M00 A298 RMK A01 T02501001  RH  019%=      5-min Rain = 0
KEN1 150537Z 21013KT 25/00 A298 RMK A01 T025000-0  RH  019%=      5-min Rain = 0
KEN1 150538Z 21013KT 25/00 A298 RMK A01 T02490000  RH  019%=      5-min Rain = 0
KEN1 150539Z 21015KT 25/00 A298 RMK A01 T02470000  RH  020%=      5-min Rain = 0
KEN1 150540Z 21014KT 25/M00 A298 RMK A01 T02481001  RH  019%=      5-min Rain = 0
KEN1 150541Z 21013KT 25/M00 A298 RMK A01 T02481001  RH  019%=      5-min Rain = 0
KEN1 150542Z 21013KT 25/00 A298 RMK A01 T024800-0  RH  020%=      5-min Rain = 0
KEN1 150543Z 21014KT 25/M00 A298 RMK A01 T02471001  RH  019%=      5-min Rain = 0
KEN1 150544Z 21013KT 25/M00 A298 RMK A01 T02471001  RH  019%=      5-min Rain = 0
KEN1 150545Z 21013KT 25/M00 A298 RMK A01 T02471001  RH  020%=      5-min Rain = 0
KEN1 150546Z 22013KT 25/00 A298 RMK A01 T024600-0  RH  020%=      5-min Rain = 0
KEN1 150547Z 21013KT 25/M00 A298 RMK A01 T02461001  RH  020%=      5-min Rain = 0
KEN1 150548Z 22014KT 25/M00 A298 RMK A01 T02461001  RH  020%=      5-min Rain = 0
KEN1 150549Z 22012KT 25/M00 A298 RMK A01 T02461002  RH  020%=      5-min Rain = 0
KEN1 150550Z 22013KT 25/M00 A298 RMK A01 T02461002  RH  020%=      5-min Rain = 0
KEN1 150551Z 21015KT 25/M00 A298 RMK A01 T02461003  RH  019%=      5-min Rain = 0
KEN1 150552Z 21016KT 25/M00 A298 RMK A01 T02471004  RH  019%=      5-min Rain = 0
KEN1 150553Z 22015KT 25/M00 A298 RMK A01 T02491004  RH  019%=      5-min Rain = 0
KEN1 150554Z 22015KT 25/M00 A298 RMK A01 T02491004  RH  019%=      5-min Rain = 0
KEN1 150555Z 22015KT 25/M00 A298 RMK A01 T02491004  RH  019%=      5-min Rain = 0
KEN1 150556Z 22014KT 25/M01 A298 RMK A01 T02491005  RH  019%=      5-min Rain = 0
KEN1 150557Z 22014KT 25/M01 A298 RMK A01 T02491005  RH  019%=      5-min Rain = 0
KEN1 150558Z 22014KT 25/M01 A298 RMK A01 T02491005  RH  019%=      5-min Rain = 0
KEN1 150559Z 21012KT 25/M01 A298 RMK A01 T02491005  RH  019%=      5-min Rain = 0
KEN1 150600Z 22012KT 25/M01 A298 RMK A01 T02481005  RH  019%=      5-min Rain = 0
KEN1 150601Z 22013KT 25/M01 A298 RMK A01 T02471005  RH  019%=      5-min Rain = 0
KEN1 150602Z 22015KT 25/M01 A298 RMK A01 T02471006  RH  019%=      5-min Rain = 0
KEN1 150603Z 22013KT 25/M01 A298 RMK A01 T02471006  RH  019%=      5-min Rain = 0
KEN1 150604Z 22013KT 25/M01 A298 RMK A01 T02471005  RH  019%=      5-min Rain = 0
KEN1 150605Z 22014KT 25/M01 A298 RMK A01 T02461005  RH  019%=      5-min Rain = 0
KEN1 150606Z 22014KT 25/M01 A298 RMK A01 T02461006  RH  019%=      5-min Rain = 0
KEN1 150607Z 22014KT 25/M01 A298 RMK A01 T02471007  RH  019%=      5-min Rain = 0
KEN1 150608Z 22013KT 25/M01 A298 RMK A01 T02471006  RH  019%=      5-min Rain = 0
KEN1 150609Z 22013KT 25/M01 A298 RMK A01 T02471006  RH  019%=      5-min Rain = 0
KEN1 150610Z 22012KT 25/M01 A298 RMK A01 T02461006  RH  019%=      5-min Rain = 0
KEN1 150611Z 22012KT 25/M01 A298 RMK A01 T02451006  RH  019%=      5-min Rain = 0
KEN1 150612Z 22012KT 24/M01 A298 RMK A01 T02431005  RH  019%=      5-min Rain = 0
KEN1 150613Z 22011KT 24/M01 A298 RMK A01 T02431006  RH  019%=      5-min Rain = 0
KEN1 150614Z 22011KT 24/M01 A298 RMK A01 T02411005  RH  020%=      5-min Rain = 0
KEN1 150615Z 22011KT 24/M01 A298 RMK A01 T02411006  RH  020%=      5-min Rain = 0
KEN1 150616Z 22011KT 24/M01 A298 RMK A01 T02401005  RH  020%=      5-min Rain = 0
KEN1 150617Z 22011KT 24/M01 A298 RMK A01 T02391005  RH  020%=      5-min Rain = 0
KEN1 150618Z 22011KT 24/M01 A298 RMK A01 T02391005  RH  020%=      5-min Rain = 0
KEN1 150619Z 22011KT 24/M01 A298 RMK A01 T02391006  RH  020%=      5-min Rain = 0
KEN1 150620Z 23008KT 24/M01 A298 RMK A01 T02391005  RH  020%=      5-min Rain = 0
KEN1 150621Z 25009KT 24/M01 A2981 RMK A01 T02381006  RH  020%=      5-min Rain = 0
KEN1 150622Z 28008KT 24/M01 A2981 RMK A01 T02381006  RH  020%=      5-min Rain = 0
KEN1 150623Z 33010KT 24/M00 A2981 RMK A01 T02371003  RH  020%=      5-min Rain = 0
KEN1 150624Z 32009KT 23/M00 A2981 RMK A01 T02321003  RH  021%=      5-min Rain = 0
KEN1 150625Z 32009KT 23/M00 A2981 RMK A01 T02291003  RH  021%=      5-min Rain = 0
KEN1 150626Z 32012KT 23/M01 A2982 RMK A01 T02271006  RH  021%=      5-min Rain = 0
KEN1 150627Z 32007KT 23/M01 A2982 RMK A01 T02321008  RH  020%=      5-min Rain = 0
KEN1 150628Z 30006KT 24/M01 A2982 RMK A01 T02351008  RH  020%=      5-min Rain = 0
KEN1 150629Z 32006G11KT 24/M01 A2982 RMK A01 T02351005  RH  020%=      5-min Rain = 0
KEN1 150630Z 30006KT 23/M01 A2982 RMK A01 T02341006  RH  020%=      5-min Rain = 0
KEN1 150631Z 29008KT 23/M01 A2982 RMK A01 T02321006  RH  021%=      5-min Rain = 0
KEN1 150632Z 29009KT 24/M01 A2982 RMK A01 T02351012  RH  019%=      5-min Rain = 0
KEN1 150633Z 28010KT 24/M01 A2982 RMK A01 T02421012  RH  019%=      5-min Rain = 0
KEN1 150634Z 27010KT 25/M01 A2982 RMK A01 T02471013  RH  018%=      5-min Rain = 0
KEN1 150635Z 26009KT 25/M01 A2981 RMK A01 T02481012  RH  018%=      5-min Rain = 0
KEN1 150636Z 25009KT 25/M01 A2981 RMK A01 T02471010  RH  018%=      5-min Rain = 0
KEN1 150637Z 28010KT 24/M01 A2981 RMK A01 T02441014  RH  018%=      5-min Rain = 0
KEN1 150638Z 29011KT 25/M01 A2981 RMK A01 T02461014  RH  018%=      5-min Rain = 0
KEN1 150639Z 29013KT 25/M01 A2981 RMK A01 T02481014  RH  018%=      5-min Rain = 0
KEN1 150640Z 28013KT 25/M02 A2982 RMK A01 T02491015  RH  017%=      5-min Rain = 0
KEN1 150641Z 28011KT 25/M02 A2981 RMK A01 T02501015  RH  017%=      5-min Rain = 0
KEN1 150642Z 28010KT 25/M02 A2981 RMK A01 T02501015  RH  017%=      5-min Rain = 0
KEN1 150643Z 28009KT 25/M02 A2982 RMK A01 T02491015  RH  017%=      5-min Rain = 0
KEN1 150644Z 28009KT 25/M01 A2982 RMK A01 T02461013  RH  018%=      5-min Rain = 0
KEN1 150645Z 28009KT 24/M01 A2982 RMK A01 T02431014  RH  018%=      5-min Rain = 0
KEN1 150646Z 27009KT 24/M01 A2982 RMK A01 T02411014  RH  018%=      5-min Rain = 0
KEN1 150647Z 27008KT 24/M01 A2982 RMK A01 T02401014  RH  019%=      5-min Rain = 0
KEN1 150648Z 27009KT 24/M01 A2982 RMK A01 T02391014  RH  019%=      5-min Rain = 0
KEN1 150649Z 27009KT 24/M02 A2982 RMK A01 T02381015  RH  019%=      5-min Rain = 0
KEN1 150650Z 26008KT 24/M02 A2982 RMK A01 T02371015  RH  019%=      5-min Rain = 0
KEN1 150651Z 27008KT 24/M02 A2982 RMK A01 T02381015  RH  019%=      5-min Rain = 0
KEN1 150652Z 28007KT 24/M01 A2982 RMK A01 T02381014  RH  019%=      5-min Rain = 0
KEN1 150653Z 27006KT 24/M01 A2982 RMK A01 T02361013  RH  019%=      5-min Rain = 0
KEN1 150654Z 31007KT 23/M01 A2982 RMK A01 T02341013  RH  019%=      5-min Rain = 0
KEN1 150655Z 32009KT 23/M01 A2982 RMK A01 T02311010  RH  020%=      5-min Rain = 0
KEN1 150656Z 30008KT 23/M01 A2982 RMK A01 T02281012  RH  020%=      5-min Rain = 0
KEN1 150657Z 31006KT 23/M01 A2982 RMK A01 T02271013  RH  020%=      5-min Rain = 0
KEN1 150658Z 30007KT 23/M01 A2983 RMK A01 T02271012  RH  020%=      5-min Rain = 0
KEN1 150659Z 30006KT 23/M02 A2983 RMK A01 T02271015  RH  020%=      5-min Rain = 0
KEN1 150700Z 30005KT 23/M02 A2983 RMK A01 T02311017  RH  019%=      5-min Rain = 0
KEN1 150701Z 30004KT 23/M02 A2982 RMK A01 T02341018  RH  019%=      5-min Rain = 0
KEN1 150702Z 29004KT 24/M02 A2983 RMK A01 T02351017  RH  019%=      5-min Rain = 0
KEN1 150703Z 28004KT 24/M02 A2983 RMK A01 T02351016  RH  019%=      5-min Rain = 0
KEN1 150704Z 28004KT 23/M02 A2983 RMK A01 T02341017  RH  019%=      5-min Rain = 0
KEN1 150705Z 27004KT 23/M02 A2983 RMK A01 T02341018  RH  019%=      5-min Rain = 0
KEN1 150706Z 27004KT 23/M02 A2983 RMK A01 T02341018  RH  019%=      5-min Rain = 0
KEN1 150707Z 30004KT 23/M02 A2983 RMK A01 T02341019  RH  019%=      5-min Rain = 0
KEN1 150708Z 31006KT 23/M02 A2983 RMK A01 T02341019  RH  018%=      5-min Rain = 0
KEN1 150709Z 32008KT 23/M02 A2983 RMK A01 T02341016  RH  019%=      5-min Rain = 0
KEN1 150710Z 32010KT 23/M02 A2983 RMK A01 T02321018  RH  019%=      5-min Rain = 0
KEN1 150711Z 33007KT 23/M02 A2983 RMK A01 T02311018  RH  019%=      5-min Rain = 0
KEN1 150712Z 35006KT 23/M02 A2983 RMK A01 T02291016  RH  019%=      5-min Rain = 0
KEN1 150713Z 35005KT 23/M02 A2983 RMK A01 T02271015  RH  020%=      5-min Rain = 0
KEN1 150714Z 34004KT 23/M02 A2983 RMK A01 T02251015  RH  020%=      5-min Rain = 0
KEN1 150715Z 34003KT 22/M01 A2983 RMK A01 T02231012  RH  021%=      5-min Rain = 0
KEN1 150716Z 01003KT 22/M01 A2983 RMK A01 T02201012  RH  021%=      5-min Rain = 0
KEN1 150717Z 01005KT 22/M01 A2982 RMK A01 T02181011  RH  022%=      5-min Rain = 0
KEN1 150718Z 01006KT 22/M01 A2983 RMK A01 T02161012  RH  022%=      5-min Rain = 0
KEN1 150719Z 00006KT 21/M01 A2983 RMK A01 T02141013  RH  022%=      5-min Rain = 0
KEN1 150720Z 00006KT 21/M01 A2982 RMK A01 T02121011  RH  023%=      5-min Rain = 0
KEN1 150721Z 00008KT 21/M01 A2983 RMK A01 T02071006  RH  024%=      5-min Rain = 0
KEN1 150722Z 01008KT 20/00 A2982 RMK A01 T02010001  RH  026%=      5-min Rain = 0
KEN1 150723Z 02009KT 20/01 A2982 RMK A01 T01970010  RH  029%=      5-min Rain = 0
KEN1 150724Z 02009KT 19/01 A2982 RMK A01 T01930012  RH  030%=      5-min Rain = 0
KEN1 150725Z 02008KT 19/02 A2982 RMK A01 T01900023  RH  033%=      5-min Rain = 0
KEN1 150726Z 02007KT 19/03 A2982 RMK A01 T01890029  RH  035%=      5-min Rain = 0
KEN1 150727Z 02007KT 19/03 A2982 RMK A01 T01880032  RH  035%=      5-min Rain = 0
KEN1 150728Z 01006KT 19/04 A2982 RMK A01 T01860035  RH  037%=      5-min Rain = 0
KEN1 150729Z 01006KT 19/04 A2982 RMK A01 T01850039  RH  038%=      5-min Rain = 0
KEN1 150730Z 01006KT 19/04 A2982 RMK A01 T01850040  RH  038%=      5-min Rain = 0
KEN1 150731Z 02005KT 18/05 A2982 RMK A01 T01840045  RH  040%=      5-min Rain = 0
KEN1 150732Z 02005KT 18/05 A2982 RMK A01 T01840054  RH  042%=      5-min Rain = 0
KEN1 150733Z 03005KT 19/06 A2982 RMK A01 T01860060  RH  044%=      5-min Rain = 0
KEN1 150734Z 04006KT 19/06 A2982 RMK A01 T01890058  RH  042%=      5-min Rain = 0
KEN1 150735Z 04006KT 19/06 A2982 RMK A01 T01900055  RH  041%=      5-min Rain = 0
KEN1 150736Z 05005KT 19/05 A2982 RMK A01 T01890050  RH  040%=      5-min Rain = 0
KEN1 150737Z 05006KT 19/05 A2982 RMK A01 T01880045  RH  039%=      5-min Rain = 0
KEN1 150738Z 04006KT 19/04 A2982 RMK A01 T01860044  RH  039%=      5-min Rain = 0
KEN1 150739Z 02007KT 18/04 A2982 RMK A01 T01840043  RH  039%=      5-min Rain = 0
KEN1 150740Z 01008KT 18/04 A2983 RMK A01 T01780042  RH  040%=      5-min Rain = 0
KEN1 150741Z 03007KT 17/04 A2982 RMK A01 T01730042  RH  042%=      5-min Rain = 0
KEN1 150742Z 03007KT 17/04 A2982 RMK A01 T01690042  RH  043%=      5-min Rain = 0
KEN1 150743Z 03008KT 17/04 A2982 RMK A01 T01660041  RH  044%=      5-min Rain = 0
KEN1 150744Z 03008KT 16/04 A2982 RMK A01 T01620041  RH  044%=      5-min Rain = 0
KEN1 150745Z 03008KT 16/04 A2982 RMK A01 T01580042  RH  046%=      5-min Rain = 0
KEN1 150746Z 03007KT 16/05 A2982 RMK A01 T01560045  RH  047%=      5-min Rain = 0
KEN1 150747Z 04007KT 16/05 A2982 RMK A01 T01550046  RH  048%=      5-min Rain = 0
KEN1 150748Z 04007KT 16/05 A2982 RMK A01 T01550047  RH  049%=      5-min Rain = 0
KEN1 150749Z 04007KT 15/05 A2982 RMK A01 T01540048  RH  049%=      5-min Rain = 0
KEN1 150750Z 04007KT 15/05 A2982 RMK A01 T01530048  RH  049%=      5-min Rain = 0
KEN1 150751Z 04008KT 15/05 A2982 RMK A01 T01510048  RH  050%=      5-min Rain = 0
KEN1 150752Z 04008KT 15/05 A2982 RMK A01 T01500049  RH  051%=      5-min Rain = 0
KEN1 150753Z 03007KT 15/05 A2982 RMK A01 T01490049  RH  051%=      5-min Rain = 0
KEN1 150754Z 02007KT 15/05 A2982 RMK A01 T01500050  RH  051%=      5-min Rain = 0
KEN1 150755Z 35007KT 15/05 A2982 RMK A01 T01500052  RH  052%=      5-min Rain = 0
KEN1 150756Z 34008KT 15/06 A2983 RMK A01 T01490055  RH  053%=      5-min Rain = 0
KEN1 150757Z 36007KT 15/06 A2983 RMK A01 T01490058  RH  054%=      5-min Rain = 0
KEN1 150758Z 01007KT 15/06 A2982 RMK A01 T01490059  RH  055%=      5-min Rain = 0
KEN1 150759Z 01007KT 15/06 A2982 RMK A01 T01490058  RH  055%=      5-min Rain = 0
KEN1 150800Z 01008KT 15/06 A2982 RMK A01 T01490058  RH  055%=      5-min Rain = 0
KEN1 150801Z 00009KT 15/06 A2982 RMK A01 T01490059  RH  055%=      5-min Rain = 0
KEN1 150802Z 01008KT 15/06 A2983 RMK A01 T01510061  RH  055%=      5-min Rain = 0
KEN1 150803Z 00008KT 15/06 A2983 RMK A01 T01530061  RH  054%=      5-min Rain = 0
KEN1 150804Z 00008KT 15/06 A2983 RMK A01 T01530061  RH  054%=      5-min Rain = 0
KEN1 150805Z 36008KT 15/06 A2983 RMK A01 T01510061  RH  055%=      5-min Rain = 0
KEN1 150806Z 36010KT 15/06 A2983 RMK A01 T01500062  RH  056%=      5-min Rain = 0
KEN1 150807Z 00011KT 15/06 A2983 RMK A01 T01490063  RH  056%=      5-min Rain = 0
KEN1 150808Z 01011KT 15/06 A2983 RMK A01 T01490064  RH  057%=      5-min Rain = 0
KEN1 150809Z 01010KT 15/06 A2983 RMK A01 T01500064  RH  057%=      5-min Rain = 0
KEN1 150810Z 01010KT 15/06 A2983 RMK A01 T01510064  RH  056%=      5-min Rain = 0
KEN1 150811Z 01009KT 15/06 A2983 RMK A01 T01510064  RH  056%=      5-min Rain = 0
KEN1 150812Z 01009KT 15/06 A2983 RMK A01 T01510064  RH  056%=      5-min Rain = 0
KEN1 150813Z 01009KT 15/06 A2983 RMK A01 T01510064  RH  056%=      5-min Rain = 0
KEN1 150814Z 01008KT 15/06 A2983 RMK A01 T01510064  RH  056%=      5-min Rain = 0
KEN1 150815Z 01008KT 15/06 A2983 RMK A01 T01500064  RH  056%=      5-min Rain = 0
KEN1 150816Z 01008KT 15/06 A2983 RMK A01 T01500064  RH  057%=      5-min Rain = 0
KEN1 150817Z 01008KT 15/06 A2983 RMK A01 T01490064  RH  057%=      5-min Rain = 0
KEN1 150818Z 00009KT 15/06 A2983 RMK A01 T01480064  RH  057%=      5-min Rain = 0
KEN1 150819Z 00009KT 15/06 A2983 RMK A01 T01470064  RH  058%=      5-min Rain = 0
KEN1 150820Z 00008KT 15/07 A2983 RMK A01 T01470065  RH  058%=      5-min Rain = 0
KEN1 150821Z 01008KT 15/07 A2983 RMK A01 T01470065  RH  058%=      5-min Rain = 0
KEN1 150822Z 01008KT 15/07 A2983 RMK A01 T01460065  RH  058%=      5-min Rain = 0
KEN1 150823Z 01008KT 15/07 A2983 RMK A01 T01460065  RH  058%=      5-min Rain = 0
KEN1 150824Z 00009KT 14/07 A2984 RMK A01 T01440065  RH  059%=      5-min Rain = 0
KEN1 150825Z 00009KT 14/07 A2984 RMK A01 T01420065  RH  060%=      5-min Rain = 0
KEN1 150826Z 01009KT 14/07 A2983 RMK A01 T01410065  RH  060%=      5-min Rain = 0
KEN1 150827Z 01009KT 14/07 A2983 RMK A01 T01390065  RH  061%=      5-min Rain = 0
KEN1 150828Z 01010KT 14/07 A2983 RMK A01 T01380065  RH  061%=      5-min Rain = 0
KEN1 150829Z 01010KT 14/07 A2983 RMK A01 T01380066  RH  062%=      5-min Rain = 0
KEN1 150830Z 01010KT 14/07 A2983 RMK A01 T01380066  RH  062%=      5-min Rain = 0
KEN1 150831Z 01010KT 14/07 A2983 RMK A01 T01380067  RH  062%=      5-min Rain = 0
KEN1 150832Z 01010KT 14/07 A2983 RMK A01 T01380068  RH  062%=      5-min Rain = 0
KEN1 150833Z 01010KT 14/07 A2983 RMK A01 T01380068  RH  062%=      5-min Rain = 0
KEN1 150834Z 02010KT 14/07 A2984 RMK A01 T01380068  RH  062%=      5-min Rain = 0
KEN1 150835Z 02009KT 14/07 A2984 RMK A01 T01380068  RH  063%=      5-min Rain = 0
KEN1 150836Z 02008KT 14/07 A2984 RMK A01 T01380068  RH  063%=      5-min Rain = 0
KEN1 150837Z 03008KT 14/07 A2984 RMK A01 T01390068  RH  062%=      5-min Rain = 0
KEN1 150838Z 03008KT 14/07 A2984 RMK A01 T01370066  RH  062%=      5-min Rain = 0
KEN1 150839Z 04009KT 14/07 A2984 RMK A01 T01350065  RH  063%=      5-min Rain = 0
KEN1 150840Z 04009KT 13/06 A2985 RMK A01 T01330064  RH  063%=      5-min Rain = 0
KEN1 150841Z 04010KT 13/06 A2985 RMK A01 T01300064  RH  064%=      5-min Rain = 0
KEN1 150842Z 04010KT 13/06 A2985 RMK A01 T01290064  RH  065%=      5-min Rain = 0
KEN1 150843Z 04011KT 13/06 A2985 RMK A01 T01280064  RH  065%=      5-min Rain = 0
KEN1 150844Z 04011KT 13/06 A2985 RMK A01 T01280064  RH  065%=      5-min Rain = 0
KEN1 150845Z 04011KT 13/07 A2985 RMK A01 T01300065  RH  065%=      5-min Rain = 0
KEN1 150846Z 04010KT 13/07 A2985 RMK A01 T01320066  RH  064%=      5-min Rain = 0
KEN1 150847Z 03009KT 14/07 A2985 RMK A01 T01350067  RH  064%=      5-min Rain = 0
KEN1 150848Z 03009KT 14/07 A2985 RMK A01 T01360068  RH  063%=      5-min Rain = 0
KEN1 150849Z 02007KT 14/07 A2985 RMK A01 T01380069  RH  063%=      5-min Rain = 0
KEN1 150850Z 01006KT 14/07 A2984 RMK A01 T01400069  RH  062%=      5-min Rain = 0
KEN1 150851Z 01006KT 14/07 A2984 RMK A01 T01410069  RH  062%=      5-min Rain = 0
KEN1 150852Z 01006KT 14/07 A2984 RMK A01 T01410069  RH  062%=      5-min Rain = 0
KEN1 150853Z 00006KT 14/07 A2984 RMK A01 T01400068  RH  062%=      5-min Rain = 0
KEN1 150854Z 00007KT 14/07 A2984 RMK A01 T01380067  RH  062%=      5-min Rain = 0
KEN1 150855Z 00007KT 14/07 A2984 RMK A01 T01360067  RH  063%=      5-min Rain = 0
KEN1 150856Z 00008KT 14/07 A2984 RMK A01 T01350067  RH  064%=      5-min Rain = 0
KEN1 150857Z 01009KT 13/07 A2984 RMK A01 T01340068  RH  064%=      5-min Rain = 0
KEN1 150858Z 01010KT 13/07 A2984 RMK A01 T01330068  RH  065%=      5-min Rain = 0
KEN1 150859Z 02009KT 13/07 A2984 RMK A01 T01310069  RH  066%=      5-min Rain = 0
KEN1 150900Z 02010KT 13/07 A2985 RMK A01 T01310071  RH  067%=      5-min Rain = 0
KEN1 150901Z 02010KT 13/07 A2985 RMK A01 T01310073  RH  068%=      5-min Rain = 0
KEN1 150902Z 02009KT 13/07 A2985 RMK A01 T01330074  RH  068%=      5-min Rain = 0
KEN1 150903Z 02009KT 13/08 A2985 RMK A01 T01340076  RH  068%=      5-min Rain = 0
KEN1 150904Z 02008KT 13/08 A2984 RMK A01 T01340077  RH  068%=      5-min Rain = 0
KEN1 150905Z 03007KT 14/08 A2984 RMK A01 T01350076  RH  068%=      5-min Rain = 0
KEN1 150906Z 03007KT 14/08 A2984 RMK A01 T01350076  RH  067%=      5-min Rain = 0
KEN1 150907Z 02007KT 14/08 A2984 RMK A01 T01350077  RH  068%=      5-min Rain = 0
KEN1 150908Z 01007KT 13/08 A2984 RMK A01 T01340079  RH  069%=      5-min Rain = 0
KEN1 150909Z 00007KT 14/08 A2984 RMK A01 T01350079  RH  069%=      5-min Rain = 0
KEN1 150910Z 00007KT 14/08 A2984 RMK A01 T01350078  RH  068%=      5-min Rain = 0
KEN1 150911Z 01007KT 13/08 A2984 RMK A01 T01340077  RH  068%=      5-min Rain = 0
KEN1 150912Z 00007KT 13/08 A2984 RMK A01 T01320075  RH  068%=      5-min Rain = 0
KEN1 150913Z 00007KT 13/07 A2984 RMK A01 T01300074  RH  069%=      5-min Rain = 0
KEN1 150914Z 36007KT 13/07 A2984 RMK A01 T01280074  RH  070%=      5-min Rain = 0
KEN1 150915Z 35007KT 13/08 A2984 RMK A01 T01280076  RH  070%=      5-min Rain = 0
KEN1 150916Z 35007KT 13/08 A2984 RMK A01 T01280077  RH  071%=      5-min Rain = 0
KEN1 150917Z 35006KT 13/08 A2984 RMK A01 T01280078  RH  071%=      5-min Rain = 0
KEN1 150918Z 34007KT 13/08 A2984 RMK A01 T01290079  RH  072%=      5-min Rain = 0
KEN1 150919Z 35008KT 13/08 A2984 RMK A01 T01290082  RH  073%=      5-min Rain = 0
KEN1 150920Z 35007KT 13/09 A2984 RMK A01 T01290088  RH  076%=      5-min Rain = 0
KEN1 150921Z 34007KT 13/09 A2984 RMK A01 T01320091  RH  076%=      5-min Rain = 0
KEN1 150922Z 33005KT 13/09 A2984 RMK A01 T01340092  RH  076%=      5-min Rain = 0
KEN1 150923Z 32005KT 14/09 A2985 RMK A01 T01360092  RH  075%=      5-min Rain = 0
KEN1 150924Z 32005KT 14/09 A2985 RMK A01 T01370091  RH  074%=      5-min Rain = 0
KEN1 150925Z 31005KT 14/09 A2985 RMK A01 T01360089  RH  073%=      5-min Rain = 0
KEN1 150926Z 31005KT 13/09 A2985 RMK A01 T01330085  RH  073%=      5-min Rain = 0
KEN1 150927Z 30005KT 13/08 A2986 RMK A01 T01300083  RH  074%=      5-min Rain = 0
KEN1 150928Z 30005KT 13/08 A2986 RMK A01 T01270082  RH  074%=      5-min Rain = 0
KEN1 150929Z 30004KT 13/08 A2986 RMK A01 T01260082  RH  074%=      5-min Rain = 0
KEN1 150930Z 32004KT 13/08 A2986 RMK A01 T01250083  RH  075%=      5-min Rain = 0
KEN1 150931Z 32004KT 13/08 A2986 RMK A01 T01260083  RH  075%=      5-min Rain = 0
KEN1 150932Z 32004KT 13/08 A2986 RMK A01 T01250083  RH  075%=      5-min Rain = 0
KEN1 150933Z 32004KT 13/08 A2985 RMK A01 T01260083  RH  075%=      5-min Rain = 0
KEN1 150934Z 31004KT 13/08 A2985 RMK A01 T01250083  RH  075%=      5-min Rain = 0
KEN1 150935Z 31004KT 13/08 A2986 RMK A01 T01250083  RH  076%=      5-min Rain = 0
KEN1 150936Z 29004KT 12/08 A2986 RMK A01 T01240083  RH  076%=      5-min Rain = 0
KEN1 150937Z 29004KT 13/09 A2986 RMK A01 T01250085  RH  077%=      5-min Rain = 0
KEN1 150938Z 29005KT 13/09 A2986 RMK A01 T01250086  RH  077%=      5-min Rain = 0
KEN1 150939Z 30004KT 13/09 A2986 RMK A01 T01260088  RH  078%=      5-min Rain = 0
KEN1 150940Z 30004KT 13/09 A2986 RMK A01 T01270090  RH  078%=      5-min Rain = 0
KEN1 150941Z 30004KT 13/09 A2986 RMK A01 T01280093  RH  079%=      5-min Rain = 0
KEN1 150942Z 29003KT 13/10 A2986 RMK A01 T01320097  RH  079%=      5-min Rain = 0
KEN1 150943Z 30003KT 13/10 A2986 RMK A01 T01340096  RH  078%=      5-min Rain = 0
KEN1 150944Z 30004KT 14/10 A2986 RMK A01 T01350097  RH  077%=      5-min Rain = 0
KEN1 150945Z 29005KT 14/10 A2986 RMK A01 T01370097  RH  077%=      5-min Rain = 0
KEN1 150946Z 29006KT 14/10 A2987 RMK A01 T01380098  RH  077%=      5-min Rain = 0
KEN1 150947Z 29007KT 14/10 A2987 RMK A01 T01380098  RH  077%=      5-min Rain = 0
KEN1 150948Z 28007KT 14/10 A2987 RMK A01 T01380098  RH  077%=      5-min Rain = 0
KEN1 150949Z 29006KT 14/10 A2987 RMK A01 T01370097  RH  077%=      5-min Rain = 0
KEN1 150950Z 30006KT 14/10 A2987 RMK A01 T01350096  RH  077%=      5-min Rain = 0
KEN1 150951Z 30006KT 13/10 A2987 RMK A01 T01340096  RH  078%=      5-min Rain = 0
KEN1 150952Z 31006KT 13/10 A2987 RMK A01 T01330096  RH  078%=      5-min Rain = 0
KEN1 150953Z 30005KT 13/10 A2987 RMK A01 T01330098  RH  079%=      5-min Rain = 0
KEN1 150954Z 30006KT 13/10 A2987 RMK A01 T01340099  RH  079%=      5-min Rain = 0
KEN1 150955Z 30006KT 14/10 A2987 RMK A01 T01350100  RH  079%=      5-min Rain = 0
KEN1 150956Z 29006KT 14/10 A2987 RMK A01 T01350100  RH  079%=      5-min Rain = 0
KEN1 150957Z 29006KT 14/10 A2987 RMK A01 T01350100  RH  079%=      5-min Rain = 0
KEN1 150958Z 30006KT 14/10 A2987 RMK A01 T01350100  RH  079%=      5-min Rain = 0
KEN1 150959Z 30006KT 14/10 A2987 RMK A01 T01350100  RH  079%=      5-min Rain = 0
KEN1 151000Z 30006KT 14/10 A2987 RMK A01 T01350100  RH  079%=      5-min Rain = 0
KEN1 151001Z 30007KT 13/10 A2987 RMK A01 T01340099  RH  079%=      5-min Rain = 0
KEN1 151002Z 30007KT 13/10 A2987 RMK A01 T01330099  RH  079%=      5-min Rain = 0
KEN1 151003Z 30007KT 13/10 A2987 RMK A01 T01330099  RH  080%=      5-min Rain = 0
KEN1 151004Z 31007KT 13/10 A2987 RMK A01 T01320099  RH  080%=      5-min Rain = 0
KEN1 151005Z 31007KT 13/10 A2987 RMK A01 T01320100  RH  081%=      5-min Rain = 0
KEN1 151006Z 31007KT 13/10 A2987 RMK A01 T01320100  RH  081%=      5-min Rain = 0
KEN1 151007Z 30008KT 13/10 A2988 RMK A01 T01330100  RH  081%=      5-min Rain = 0
KEN1 151008Z 30008KT 13/10 A2988 RMK A01 T01330100  RH  080%=      5-min Rain = 0
KEN1 151009Z 30008KT 13/10 A2988 RMK A01 T01330100  RH  080%=      5-min Rain = 0
KEN1 151010Z 30008KT 13/10 A2988 RMK A01 T01320100  RH  080%=      5-min Rain = 0
KEN1 151011Z 30008KT 13/10 A2988 RMK A01 T01320100  RH  081%=      5-min Rain = 0
KEN1 151012Z 30007KT 13/10 A2988 RMK A01 T01330099  RH  080%=      5-min Rain = 0
KEN1 151013Z 30007KT 13/10 A2988 RMK A01 T01340099  RH  079%=      5-min Rain = 0
KEN1 151014Z 30007KT 14/10 A2988 RMK A01 T01350097  RH  078%=      5-min Rain = 0
KEN1 151015Z 29007KT 14/10 A2988 RMK A01 T01350097  RH  077%=      5-min Rain = 0
KEN1 151016Z 29007KT 14/10 A2988 RMK A01 T01360096  RH  077%=      5-min Rain = 0
KEN1 151017Z 29007KT 14/10 A2988 RMK A01 T01350095  RH  077%=      5-min Rain = 0
KEN1 151018Z 29006KT 14/10 A2988 RMK A01 T01350095  RH  077%=      5-min Rain = 0
KEN1 151019Z 29006KT 13/09 A2988 RMK A01 T01340094  RH  077%=      5-min Rain = 0
KEN1 151020Z 29005KT 13/09 A2988 RMK A01 T01340093  RH  077%=      5-min Rain = 0
KEN1 151021Z 29004KT 13/09 A2988 RMK A01 T01330093  RH  076%=      5-min Rain = 0
KEN1 151022Z 29004KT 13/09 A2988 RMK A01 T01330093  RH  077%=      5-min Rain = 0
KEN1 151023Z 29004KT 13/09 A2988 RMK A01 T01320092  RH  077%=      5-min Rain = 0
KEN1 151024Z 29004KT 13/09 A2988 RMK A01 T01320092  RH  077%=      5-min Rain = 0
KEN1 151025Z 29004KT 13/09 A2988 RMK A01 T01310092  RH  077%=      5-min Rain = 0
KEN1 151026Z 28005KT 13/09 A2988 RMK A01 T01310092  RH  077%=      5-min Rain = 0
KEN1 151027Z 28005KT 13/09 A2988 RMK A01 T01310091  RH  077%=      5-min Rain = 0
KEN1 151028Z 28005KT 13/09 A2988 RMK A01 T01300091  RH  077%=      5-min Rain = 0
KEN1 151029Z 28005KT 13/09 A2988 RMK A01 T01290091  RH  077%=      5-min Rain = 0
KEN1 151030Z 28004KT 13/09 A2988 RMK A01 T01280090  RH  077%=      5-min Rain = 0
KEN1 151031Z 28004KT 13/09 A2988 RMK A01 T01280090  RH  078%=      5-min Rain = 0
KEN1 151032Z 28004KT 13/09 A2988 RMK A01 T01280090  RH  078%=      5-min Rain = 0
KEN1 151033Z 28004KT 13/09 A2988 RMK A01 T01270090  RH  078%=      5-min Rain = 0
KEN1 151034Z 28004KT 13/09 A2988 RMK A01 T01260089  RH  078%=      5-min Rain = 0
KEN1 151035Z 27005KT 13/09 A2988 RMK A01 T01250089  RH  079%=      5-min Rain = 0
KEN1 151036Z 27005KT 12/09 A2988 RMK A01 T01240089  RH  079%=      5-min Rain = 0
KEN1 151037Z 27005KT 12/09 A2988 RMK A01 T01240089  RH  079%=      5-min Rain = 0
KEN1 151038Z 26005KT 12/09 A2989 RMK A01 T01240089  RH  079%=      5-min Rain = 0
KEN1 151039Z 26005KT 12/09 A2989 RMK A01 T01240090  RH  079%=      5-min Rain = 0
KEN1 151040Z 27005KT 13/09 A2989 RMK A01 T01250089  RH  079%=      5-min Rain = 0
KEN1 151041Z 27005KT 12/09 A2989 RMK A01 T01240089  RH  079%=      5-min Rain = 0
KEN1 151042Z 26005KT 12/09 A2989 RMK A01 T01230088  RH  079%=      5-min Rain = 0
KEN1 151043Z 26005KT 12/09 A2989 RMK A01 T01230088  RH  079%=      5-min Rain = 0
KEN1 151044Z 26005KT 12/09 A2989 RMK A01 T01230088  RH  079%=      5-min Rain = 0
KEN1 151045Z 25005KT 12/09 A2989 RMK A01 T01220087  RH  079%=      5-min Rain = 0
KEN1 151046Z 25005KT 12/09 A2989 RMK A01 T01200086  RH  080%=      5-min Rain = 0
KEN1 151047Z 25005KT 12/09 A2989 RMK A01 T01200086  RH  080%=      5-min Rain = 0
KEN1 151048Z 26005KT 12/09 A2989 RMK A01 T01200086  RH  080%=      5-min Rain = 0
KEN1 151049Z 26005KT 12/09 A2989 RMK A01 T01200086  RH  080%=      5-min Rain = 0
KEN1 151050Z 26004KT 12/09 A2989 RMK A01 T01210086  RH  079%=      5-min Rain = 0
KEN1 151051Z 26005KT 12/09 A2989 RMK A01 T01220086  RH  079%=      5-min Rain = 0
KEN1 151052Z 26005KT 12/09 A2989 RMK A01 T01230086  RH  078%=      5-min Rain = 0
KEN1 151053Z 25004KT 12/09 A2989 RMK A01 T01230085  RH  078%=      5-min Rain = 0
KEN1 151054Z 25004KT 12/09 A2989 RMK A01 T01230085  RH  077%=      5-min Rain = 0
KEN1 151055Z 25004KT 12/08 A2989 RMK A01 T01220084  RH  077%=      5-min Rain = 0
KEN1 151056Z 25004KT 12/08 A2989 RMK A01 T01210084  RH  078%=      5-min Rain = 0
KEN1 151057Z 25004KT 12/08 A2989 RMK A01 T01200083  RH  078%=      5-min Rain = 0
KEN1 151058Z 25004KT 12/08 A2989 RMK A01 T01190083  RH  079%=      5-min Rain = 0
KEN1 151059Z 26004KT 12/08 A2989 RMK A01 T01190083  RH  079%=      5-min Rain = 0
KEN1 151100Z 25004KT 12/08 A2989 RMK A01 T01190083  RH  079%=      5-min Rain = 0
KEN1 151101Z 25003KT 12/08 A2989 RMK A01 T01180083  RH  079%=      5-min Rain = 0
KEN1 151102Z 25004KT 12/08 A2989 RMK A01 T01180083  RH  079%=      5-min Rain = 0
KEN1 151103Z 24004KT 12/08 A2989 RMK A01 T01180083  RH  079%=      5-min Rain = 0
KEN1 151104Z 24004KT 12/08 A2989 RMK A01 T01180083  RH  079%=      5-min Rain = 0
KEN1 151105Z 24004KT 12/08 A2989 RMK A01 T01180083  RH  079%=      5-min Rain = 0
KEN1 151106Z 25004KT 12/08 A2989 RMK A01 T01170083  RH  080%=      5-min Rain = 0
KEN1 151107Z 24004KT 12/08 A2989 RMK A01 T01170083  RH  080%=      5-min Rain = 0
KEN1 151108Z 24004KT 12/08 A2989 RMK A01 T01170083  RH  080%=      5-min Rain = 0
KEN1 151109Z 24004KT 12/08 A2989 RMK A01 T01160082  RH  080%=      5-min Rain = 0
KEN1 151110Z 25004KT 12/08 A2989 RMK A01 T01150082  RH  080%=      5-min Rain = 0
KEN1 151111Z 24005KT 12/08 A2989 RMK A01 T01150082  RH  080%=      5-min Rain = 0
KEN1 151112Z 25005KT 11/08 A2989 RMK A01 T01140081  RH  081%=      5-min Rain = 0
KEN1 151113Z 24005KT 11/08 A2989 RMK A01 T01130082  RH  081%=      5-min Rain = 0
KEN1 151114Z 25006KT 11/08 A2989 RMK A01 T01120082  RH  082%=      5-min Rain = 0
KEN1 151115Z 24006KT 11/08 A2989 RMK A01 T01120083  RH  082%=      5-min Rain = 0
KEN1 151116Z 25006KT 11/08 A2989 RMK A01 T01120083  RH  082%=      5-min Rain = 0
KEN1 151117Z 26006KT 11/08 A2989 RMK A01 T01120083  RH  083%=      5-min Rain = 0
KEN1 151118Z 26005KT 11/08 A2989 RMK A01 T01120084  RH  083%=      5-min Rain = 0
KEN1 151119Z 27005KT 11/08 A2989 RMK A01 T01120084  RH  083%=      5-min Rain = 0
KEN1 151120Z 27005KT 11/09 A2989 RMK A01 T01130085  RH  083%=      5-min Rain = 0
KEN1 151121Z 27004KT 11/09 A2989 RMK A01 T01140085  RH  082%=      5-min Rain = 0
KEN1 151122Z 27004KT 12/09 A2989 RMK A01 T01150085  RH  081%=      5-min Rain = 0
KEN1 151123Z 26004KT 12/08 A2989 RMK A01 T01160084  RH  081%=      5-min Rain = 0
KEN1 151124Z 26004KT 12/08 A2989 RMK A01 T01160084  RH  081%=      5-min Rain = 0
KEN1 151125Z 25004KT 12/08 A2989 RMK A01 T01160084  RH  081%=      5-min Rain = 0
KEN1 151126Z 25004KT 12/08 A2989 RMK A01 T01160083  RH  081%=      5-min Rain = 0
KEN1 151127Z 25005KT 12/08 A2989 RMK A01 T01150083  RH  081%=      5-min Rain = 0
KEN1 151128Z 25005KT 11/08 A2989 RMK A01 T01140082  RH  081%=      5-min Rain = 0
KEN1 151129Z 25006KT 11/08 A2989 RMK A01 T01140082  RH  081%=      5-min Rain = 0
KEN1 151130Z 25006KT 11/08 A2989 RMK A01 T01130082  RH  081%=      5-min Rain = 0
KEN1 151131Z 26006KT 11/08 A2989 RMK A01 T01130082  RH  081%=      5-min Rain = 0
KEN1 151132Z 26005KT 11/08 A2989 RMK A01 T01130082  RH  081%=      5-min Rain = 0
KEN1 151133Z 26004KT 11/08 A2989 RMK A01 T01130083  RH  082%=      5-min Rain = 0
KEN1 151134Z 26003KT 11/08 A2989 RMK A01 T01120082  RH  082%=      5-min Rain = 0
KEN1 151135Z 25003KT 11/08 A2989 RMK A01 T01110081  RH  082%=      5-min Rain = 0
KEN1 151136Z 24003KT 11/08 A2989 RMK A01 T01110081  RH  082%=      5-min Rain = 0
KEN1 151137Z 25003KT 11/08 A2989 RMK A01 T01100081  RH  082%=      5-min Rain = 0
KEN1 151138Z 25003KT 11/08 A2989 RMK A01 T01100081  RH  082%=      5-min Rain = 0
KEN1 151139Z 25004KT 11/08 A299 RMK A01 T01100081  RH  082%=      5-min Rain = 0
KEN1 151140Z 25004KT 11/08 A299 RMK A01 T01100081  RH  082%=      5-min Rain = 0
KEN1 151141Z 25004KT 11/08 A299 RMK A01 T01100081  RH  083%=      5-min Rain = 0
KEN1 151142Z 25005KT 11/08 A299 RMK A01 T01100081  RH  082%=      5-min Rain = 0
KEN1 151143Z 25005KT 11/08 A299 RMK A01 T01090081  RH  083%=      5-min Rain = 0
KEN1 151144Z 25005KT 11/08 A299 RMK A01 T01090081  RH  083%=      5-min Rain = 0
KEN1 151145Z 25004KT 11/08 A299 RMK A01 T01090081  RH  083%=      5-min Rain = 0
KEN1 151146Z 25004KT 11/08 A299 RMK A01 T01080082  RH  084%=      5-min Rain = 0
KEN1 151147Z 25004KT 11/08 A299 RMK A01 T01090082  RH  084%=      5-min Rain = 0
KEN1 151148Z 26004KT 11/08 A299 RMK A01 T01090082  RH  084%=      5-min Rain = 0
KEN1 151149Z 26004KT 11/08 A299 RMK A01 T01100083  RH  083%=      5-min Rain = 0
KEN1 151150Z 26004KT 11/08 A299 RMK A01 T01100083  RH  083%=      5-min Rain = 0
KEN1 151151Z 26004KT 11/08 A299 RMK A01 T01110083  RH  083%=      5-min Rain = 0
KEN1 151152Z 26004KT 11/08 A299 RMK A01 T01110084  RH  083%=      5-min Rain = 0
KEN1 151153Z 26005KT 11/08 A299 RMK A01 T01120084  RH  083%=      5-min Rain = 0
KEN1 151154Z 26005KT 11/08 A299 RMK A01 T01120083  RH  083%=      5-min Rain = 0
KEN1 151155Z 25005KT 11/09 A299 RMK A01 T01130085  RH  083%=      5-min Rain = 0
KEN1 151156Z 25005KT 11/09 A299 RMK A01 T01140085  RH  083%=      5-min Rain = 0
KEN1 151157Z 25006KT 11/09 A299 RMK A01 T01140085  RH  082%=      5-min Rain = 0
KEN1 151158Z 26006KT 11/09 A299 RMK A01 T01140085  RH  083%=      5-min Rain = 0
KEN1 151159Z 26005KT 11/09 A299 RMK A01 T01140086  RH  083%=      5-min Rain = 0
KEN1 151200Z 26006KT 12/09 A299 RMK A01 T01160087  RH  082%=      5-min Rain = 0
KEN1 151201Z 26006KT 12/09 A299 RMK A01 T01180087  RH  082%=      5-min Rain = 0
KEN1 151202Z 26006KT 12/09 A299 RMK A01 T01190087  RH  081%=      5-min Rain = 0
KEN1 151203Z 26005KT 12/09 A299 RMK A01 T01190087  RH  081%=      5-min Rain = 0
KEN1 151204Z 26005KT 12/09 A299 RMK A01 T01190086  RH  080%=      5-min Rain = 0
KEN1 151205Z 26005KT 12/09 A299 RMK A01 T01200086  RH  080%=      5-min Rain = 0
KEN1 151206Z 26005KT 12/09 A299 RMK A01 T01210086  RH  079%=      5-min Rain = 0
KEN1 151207Z 27005KT 12/09 A299 RMK A01 T01220085  RH  078%=      5-min Rain = 0
KEN1 151208Z 27005KT 12/08 A299 RMK A01 T01230084  RH  077%=      5-min Rain = 0
KEN1 151209Z 27005KT 13/08 A299 RMK A01 T01250084  RH  076%=      5-min Rain = 0
KEN1 151210Z 26004KT 13/08 A299 RMK A01 T01260084  RH  076%=      5-min Rain = 0
KEN1 151211Z 26005KT 13/08 A2991 RMK A01 T01260084  RH  075%=      5-min Rain = 0
KEN1 151212Z 26005KT 13/08 A2991 RMK A01 T01270084  RH  075%=      5-min Rain = 0
KEN1 151213Z 27006KT 13/08 A2991 RMK A01 T01270084  RH  075%=      5-min Rain = 0
KEN1 151214Z 26006KT 13/08 A2991 RMK A01 T01270083  RH  074%=      5-min Rain = 0
KEN1 151215Z 26006KT 13/08 A2991 RMK A01 T01290083  RH  074%=      5-min Rain = 0
KEN1 151216Z 26006KT 13/08 A2991 RMK A01 T01300083  RH  073%=      5-min Rain = 0
KEN1 151217Z 26006KT 13/08 A2991 RMK A01 T01300083  RH  073%=      5-min Rain = 0
KEN1 151218Z 26006KT 13/08 A2991 RMK A01 T01310083  RH  072%=      5-min Rain = 0
KEN1 151219Z 27006KT 13/08 A2991 RMK A01 T01320082  RH  072%=      5-min Rain = 0
KEN1 151220Z 27006KT 13/08 A2991 RMK A01 T01320082  RH  072%=      5-min Rain = 0
KEN1 151221Z 28006KT 13/08 A2991 RMK A01 T01320082  RH  071%=      5-min Rain = 0
KEN1 151222Z 28005KT 13/08 A2991 RMK A01 T01330083  RH  071%=      5-min Rain = 0
KEN1 151223Z 28005KT 13/08 A2991 RMK A01 T01340084  RH  072%=      5-min Rain = 0
KEN1 151224Z 28006KT 13/08 A2991 RMK A01 T01340084  RH  071%=      5-min Rain = 0
KEN1 151225Z 28006KT 14/08 A2991 RMK A01 T01350084  RH  071%=      5-min Rain = 0
KEN1 151226Z 27006KT 14/08 A2991 RMK A01 T01350084  RH  071%=      5-min Rain = 0
KEN1 151227Z 27005KT 14/09 A2991 RMK A01 T01360085  RH  072%=      5-min Rain = 0
KEN1 151228Z 27005KT 14/09 A2991 RMK A01 T01360085  RH  071%=      5-min Rain = 0
KEN1 151229Z 27006KT 14/09 A2991 RMK A01 T01370086  RH  071%=      5-min Rain = 0
KEN1 151230Z 28005KT 14/09 A2991 RMK A01 T01390086  RH  070%=      5-min Rain = 0
KEN1 151231Z 27005KT 14/09 A2991 RMK A01 T01400086  RH  070%=      5-min Rain = 0
KEN1 151232Z 28005KT 14/09 A2991 RMK A01 T01400086  RH  069%=      5-min Rain = 0
KEN1 151233Z 28005KT 14/09 A2991 RMK A01 T01410086  RH  069%=      5-min Rain = 0
KEN1 151234Z 28005KT 14/09 A2991 RMK A01 T01410086  RH  069%=      5-min Rain = 0
KEN1 151235Z 28004KT 14/09 A2991 RMK A01 T01420087  RH  069%=      5-min Rain = 0
KEN1 151236Z 28004KT 14/09 A2991 RMK A01 T01420087  RH  069%=      5-min Rain = 0
KEN1 151237Z 28004KT 14/09 A2992 RMK A01 T01430088  RH  070%=      5-min Rain = 0
KEN1 151238Z 29004KT 14/09 A2992 RMK A01 T01430087  RH  069%=      5-min Rain = 0
KEN1 151239Z 30004KT 14/09 A2992 RMK A01 T01440088  RH  069%=      5-min Rain = 0
KEN1 151240Z 30003KT 15/09 A2991 RMK A01 T01450088  RH  069%=      5-min Rain = 0
KEN1 151241Z 29004KT 15/09 A2991 RMK A01 T01450087  RH  068%=      5-min Rain = 0
KEN1 151242Z 28004KT 15/09 A2991 RMK A01 T01450086  RH  068%=      5-min Rain = 0
KEN1 151243Z 27004KT 15/09 A2991 RMK A01 T01460087  RH  068%=      5-min Rain = 0
KEN1 151244Z 27004KT 15/09 A2992 RMK A01 T01460088  RH  068%=      5-min Rain = 0
KEN1 151245Z 26004KT 15/09 A2992 RMK A01 T01470088  RH  068%=      5-min Rain = 0
KEN1 151246Z 26004KT 15/09 A2992 RMK A01 T01480089  RH  068%=      5-min Rain = 0
KEN1 151247Z 26004KT 15/09 A2992 RMK A01 T01480089  RH  068%=      5-min Rain = 0
KEN1 151248Z 26003KT 15/09 A2992 RMK A01 T01490090  RH  068%=      5-min Rain = 0
KEN1 151249Z 27004KT 15/09 A2992 RMK A01 T01490088  RH  067%=      5-min Rain = 0
KEN1 151250Z 28004KT 15/09 A2992 RMK A01 T01490090  RH  068%=      5-min Rain = 0
KEN1 151251Z 28004KT 15/09 A2993 RMK A01 T01510091  RH  067%=      5-min Rain = 0
KEN1 151252Z 28004KT 15/09 A2993 RMK A01 T01510090  RH  067%=      5-min Rain = 0
KEN1 151253Z 27004KT 15/09 A2993 RMK A01 T01520090  RH  066%=      5-min Rain = 0
KEN1 151254Z 27004KT 15/09 A2993 RMK A01 T01530090  RH  066%=      5-min Rain = 0
KEN1 151255Z 26005KT 15/09 A2993 RMK A01 T01530091  RH  066%=      5-min Rain = 0
KEN1 151256Z 26005KT 15/09 A2993 RMK A01 T01540092  RH  066%=      5-min Rain = 0
KEN1 151257Z 26004KT 16/09 A2993 RMK A01 T01550093  RH  066%=      5-min Rain = 0
KEN1 151258Z 26004KT 16/09 A2993 RMK A01 T01560093  RH  066%=      5-min Rain = 0
KEN1 151259Z 27003KT 16/09 A2993 RMK A01 T01570094  RH  066%=      5-min Rain = 0
KEN1 151300Z 28004KT 16/10 A2993 RMK A01 T01580095  RH  066%=      5-min Rain = 0
KEN1 151301Z 29004KT 16/10 A2993 RMK A01 T01590095  RH  066%=      5-min Rain = 0
KEN1 151302Z 29005KT 16/10 A2993 RMK A01 T01610095  RH  065%=      5-min Rain = 0
KEN1 151303Z 28005KT 16/10 A2993 RMK A01 T01620095  RH  064%=      5-min Rain = 0
KEN1 151304Z 28005KT 16/10 A2993 RMK A01 T01630096  RH  064%=      5-min Rain = 0
KEN1 151305Z 28004KT 17/10 A2993 RMK A01 T01650096  RH  064%=      5-min Rain = 0
KEN1 151306Z 28004KT 17/10 A2993 RMK A01 T01660097  RH  064%=      5-min Rain = 0
KEN1 151307Z 28004KT 17/10 A2993 RMK A01 T01670097  RH  063%=      5-min Rain = 0
KEN1 151308Z 29004KT 17/10 A2993 RMK A01 T01690099  RH  063%=      5-min Rain = 0
KEN1 151309Z 28005KT 17/10 A2993 RMK A01 T01700099  RH  063%=      5-min Rain = 0
KEN1 151310Z 28006KT 17/10 A2993 RMK A01 T01700098  RH  062%=      5-min Rain = 0
KEN1 151311Z 28006KT 17/10 A2993 RMK A01 T01710098  RH  062%=      5-min Rain = 0
KEN1 151312Z 29005KT 17/10 A2993 RMK A01 T01710097  RH  062%=      5-min Rain = 0
KEN1 151313Z 30005KT 17/10 A2993 RMK A01 T01710098  RH  062%=      5-min Rain = 0
KEN1 151314Z 30005KT 17/10 A2993 RMK A01 T01710097  RH  062%=      5-min Rain = 0
KEN1 151315Z 30004KT 17/10 A2993 RMK A01 T01720098  RH  062%=      5-min Rain = 0
KEN1 151316Z 30005KT 17/10 A2993 RMK A01 T01730101  RH  063%=      5-min Rain = 0
KEN1 151317Z 29005KT 17/10 A2993 RMK A01 T01740101  RH  062%=      5-min Rain = 0
KEN1 151318Z 29006KT 18/10 A2993 RMK A01 T01760101  RH  062%=      5-min Rain = 0
KEN1 151319Z 29006KT 18/10 A2993 RMK A01 T01770103  RH  062%=      5-min Rain = 0
KEN1 151320Z 29006KT 18/10 A2993 RMK A01 T01780104  RH  062%=      5-min Rain = 0
KEN1 151321Z 28006KT 18/10 A2993 RMK A01 T01800104  RH  061%=      5-min Rain = 0
KEN1 151322Z 29005KT 18/11 A2993 RMK A01 T01810105  RH  061%=      5-min Rain = 0
KEN1 151323Z 29005KT 18/11 A2993 RMK A01 T01820106  RH  061%=      5-min Rain = 0
KEN1 151324Z 29005KT 18/11 A2993 RMK A01 T01830105  RH  060%=      5-min Rain = 0
KEN1 151325Z 29005KT 18/11 A2993 RMK A01 T01840105  RH  060%=      5-min Rain = 0
KEN1 151326Z 28004KT 18/11 A2993 RMK A01 T01840106  RH  060%=      5-min Rain = 0
KEN1 151327Z 30004KT 19/11 A2993 RMK A01 T01850106  RH  060%=      5-min Rain = 0
KEN1 151328Z 29004KT 19/11 A2993 RMK A01 T01850107  RH  060%=      5-min Rain = 0
KEN1 151329Z 30005KT 19/11 A2993 RMK A01 T01860108  RH  060%=      5-min Rain = 0
KEN1 151330Z 30005KT 19/11 A2993 RMK A01 T01870107  RH  060%=      5-min Rain = 0
KEN1 151331Z 30005KT 19/11 A2993 RMK A01 T01880110  RH  060%=      5-min Rain = 0
KEN1 151332Z 30005KT 19/11 A2993 RMK A01 T01890108  RH  060%=      5-min Rain = 0
KEN1 151333Z 30005KT 19/11 A2993 RMK A01 T01890109  RH  059%=      5-min Rain = 0
KEN1 151334Z 30004KT 19/11 A2993 RMK A01 T01900110  RH  060%=      5-min Rain = 0
KEN1 151335Z 30004KT 19/11 A2993 RMK A01 T01910110  RH  059%=      5-min Rain = 0
KEN1 151336Z 31004KT 19/11 A2993 RMK A01 T01920113  RH  060%=      5-min Rain = 0
KEN1 151337Z 30006KT 19/11 A2993 RMK A01 T01930113  RH  060%=      5-min Rain = 0
KEN1 151338Z 33004KT 19/11 A2993 RMK A01 T01940114  RH  060%=      5-min Rain = 0
KEN1 151339Z 32006KT 20/12 A2993 RMK A01 T01960118  RH  060%=      5-min Rain = 0
KEN1 151340Z 33008KT 20/12 A2993 RMK A01 T01990117  RH  059%=      5-min Rain = 0
KEN1 151341Z 32009KT 20/12 A2994 RMK A01 T02000115  RH  058%=      5-min Rain = 0
KEN1 151342Z 32009KT 20/12 A2993 RMK A01 T02000115  RH  058%=      5-min Rain = 0
KEN1 151343Z 32010KT 20/12 A2993 RMK A01 T02020115  RH  057%=      5-min Rain = 0
KEN1 151344Z 32010KT 20/11 A2993 RMK A01 T02020114  RH  057%=      5-min Rain = 0
KEN1 151345Z 33011KT 20/12 A2993 RMK A01 T02020115  RH  057%=      5-min Rain = 0
KEN1 151346Z 34011KT 20/11 A2994 RMK A01 T02030113  RH  056%=      5-min Rain = 0
KEN1 151347Z 34007KT 20/12 A2994 RMK A01 T02030116  RH  057%=      5-min Rain = 0
KEN1 151348Z 33008KT 20/12 A2994 RMK A01 T02040117  RH  057%=      5-min Rain = 0
KEN1 151349Z 33009KT 21/12 A2994 RMK A01 T02060118  RH  057%=      5-min Rain = 0
KEN1 151350Z 33010KT 21/12 A2994 RMK A01 T02060116  RH  056%=      5-min Rain = 0
KEN1 151351Z 34009KT 21/12 A2994 RMK A01 T02070115  RH  056%=      5-min Rain = 0
KEN1 151352Z 33010KT 21/12 A2994 RMK A01 T02070116  RH  056%=      5-min Rain = 0
KEN1 151353Z 34009KT 21/11 A2994 RMK A01 T02070114  RH  055%=      5-min Rain = 0
KEN1 151354Z 35008KT 21/12 A2994 RMK A01 T02070116  RH  056%=      5-min Rain = 0
KEN1 151355Z 34009KT 21/12 A2994 RMK A01 T02080116  RH  056%=      5-min Rain = 0
KEN1 151356Z 35010KT 21/12 A2994 RMK A01 T02080116  RH  055%=      5-min Rain = 0
KEN1 151357Z 35009KT 21/11 A2994 RMK A01 T02090114  RH  055%=      5-min Rain = 0
KEN1 151358Z 34008KT 21/12 A2994 RMK A01 T02090115  RH  055%=      5-min Rain = 0
KEN1 151359Z 34008KT 21/12 A2994 RMK A01 T02090116  RH  055%=      5-min Rain = 0
KEN1 151400Z 33008KT 21/12 A2994 RMK A01 T02090117  RH  055%=      5-min Rain = 0
KEN1 151401Z 33008KT 21/12 A2994 RMK A01 T02100117  RH  055%=      5-min Rain = 0
KEN1 151402Z 34008KT 21/12 A2994 RMK A01 T02110118  RH  055%=      5-min Rain = 0
KEN1 151403Z 35009KT 21/12 A2994 RMK A01 T02110115  RH  054%=      5-min Rain = 0
KEN1 151404Z 35010KT 21/12 A2994 RMK A01 T02110116  RH  055%=      5-min Rain = 0
KEN1 151405Z 35008KT 21/12 A2994 RMK A01 T02110115  RH  054%=      5-min Rain = 0
KEN1 151406Z 35010KT 21/12 A2994 RMK A01 T02110116  RH  055%=      5-min Rain = 0
KEN1 151407Z 36008KT 21/11 A2994 RMK A01 T02110114  RH  054%=      5-min Rain = 0
KEN1 151408Z 36009KT 21/12 A2994 RMK A01 T02110116  RH  055%=      5-min Rain = 0
KEN1 151409Z 34010KT 21/12 A2994 RMK A01 T02120118  RH  055%=      5-min Rain = 0
KEN1 151410Z 34009KT 21/12 A2994 RMK A01 T02130117  RH  054%=      5-min Rain = 0
KEN1 151411Z 35011KT 21/12 A2994 RMK A01 T02140118  RH  054%=      5-min Rain = 0
KEN1 151412Z 35009KT 21/12 A2994 RMK A01 T02140116  RH  054%=      5-min Rain = 0
KEN1 151413Z 35010KT 21/12 A2994 RMK A01 T02140117  RH  054%=      5-min Rain = 0
KEN1 151414Z 36009KT 22/12 A2994 RMK A01 T02150119  RH  054%=      5-min Rain = 0
KEN1 151415Z 35009KT 22/12 A2994 RMK A01 T02160119  RH  054%=      5-min Rain = 0
KEN1 151416Z 36009KT 22/12 A2994 RMK A01 T02160116  RH  053%=      5-min Rain = 0
KEN1 151417Z 00008KT 22/12 A2994 RMK A01 T02160117  RH  053%=      5-min Rain = 0
KEN1 151418Z 34008KT 22/12 A2994 RMK A01 T02160118  RH  054%=      5-min Rain = 0
KEN1 151419Z 33007KT 22/12 A2994 RMK A01 T02170116  RH  053%=      5-min Rain = 0
KEN1 151420Z 34007KT 22/12 A2994 RMK A01 T02170119  RH  054%=      5-min Rain = 0
KEN1 151421Z 34009KT 22/12 A2994 RMK A01 T02170120  RH  054%=      5-min Rain = 0
KEN1 151422Z 34011KT 22/12 A2994 RMK A01 T02180118  RH  053%=      5-min Rain = 0
KEN1 151423Z 35008KT 22/12 A2994 RMK A01 T02180118  RH  053%=      5-min Rain = 0
KEN1 151424Z 35008KT 22/12 A2994 RMK A01 T02180120  RH  054%=      5-min Rain = 0
KEN1 151425Z 34010KT 22/12 A2994 RMK A01 T02190118  RH  053%=      5-min Rain = 0
KEN1 151426Z 34009KT 22/12 A2994 RMK A01 T02190118  RH  053%=      5-min Rain = 0
KEN1 151427Z 34008KT 22/12 A2994 RMK A01 T02190119  RH  053%=      5-min Rain = 0
KEN1 151428Z 34008G13KT 22/12 A2994 RMK A01 T02180119  RH  053%=      5-min Rain = 0
KEN1 151429Z 34010KT 22/12 A2994 RMK A01 T02180119  RH  053%=      5-min Rain = 0
KEN1 151430Z 34010KT 22/12 A2994 RMK A01 T02190119  RH  053%=      5-min Rain = 0
KEN1 151431Z 35010KT 22/12 A2994 RMK A01 T02200119  RH  053%=      5-min Rain = 0
KEN1 151432Z 36009KT 22/12 A2994 RMK A01 T02200118  RH  053%=      5-min Rain = 0
KEN1 151433Z 35009KT 22/12 A2994 RMK A01 T02190118  RH  053%=      5-min Rain = 0
KEN1 151434Z 35011KT 22/12 A2994 RMK A01 T02190121  RH  054%=      5-min Rain = 0
KEN1 151435Z 35010KT 22/12 A2994 RMK A01 T02200120  RH  053%=      5-min Rain = 0
KEN1 151436Z 36008KT 22/12 A2994 RMK A01 T02210121  RH  053%=      5-min Rain = 0
KEN1 151437Z 35010KT 22/12 A2994 RMK A01 T02210122  RH  053%=      5-min Rain = 0
KEN1 151438Z 35013KT 22/12 A2994 RMK A01 T02220122  RH  053%=      5-min Rain = 0
KEN1 151439Z 35012KT 22/12 A2994 RMK A01 T02220120  RH  052%=      5-min Rain = 0
KEN1 151440Z 36010KT 22/12 A2994 RMK A01 T02210120  RH  053%=      5-min Rain = 0
KEN1 151441Z 36010KT 22/12 A2994 RMK A01 T02210118  RH  052%=      5-min Rain = 0
KEN1 151442Z 35009KT 22/12 A2994 RMK A01 T02210119  RH  052%=      5-min Rain = 0
KEN1 151443Z 35010KT 22/12 A2994 RMK A01 T02220121  RH  053%=      5-min Rain = 0
KEN1 151444Z 00010KT 22/12 A2994 RMK A01 T02220122  RH  053%=      5-min Rain = 0
KEN1 151445Z 00011KT 22/12 A2994 RMK A01 T02240120  RH  052%=      5-min Rain = 0
KEN1 151446Z 34009KT 23/12 A2994 RMK A01 T02250121  RH  052%=      5-min Rain = 0
KEN1 151447Z 36009KT 23/12 A2994 RMK A01 T02250122  RH  052%=      5-min Rain = 0
KEN1 151448Z 35010KT 22/12 A2994 RMK A01 T02240120  RH  052%=      5-min Rain = 0
KEN1 151449Z 35010KT 22/12 A2994 RMK A01 T02240123  RH  053%=      5-min Rain = 0
KEN1 151450Z 35009KT 23/12 A2994 RMK A01 T02250123  RH  053%=      5-min Rain = 0
KEN1 151451Z 35010KT 23/12 A2994 RMK A01 T02270122  RH  052%=      5-min Rain = 0
KEN1 151452Z 00009KT 23/12 A2994 RMK A01 T02260119  RH  051%=      5-min Rain = 0
KEN1 151453Z 01007KT 22/12 A2994 RMK A01 T02230119  RH  052%=      5-min Rain = 0
KEN1 151454Z 35008KT 23/12 A2994 RMK A01 T02250122  RH  052%=      5-min Rain = 0
KEN1 151455Z 34009KT 23/12 A2994 RMK A01 T02270124  RH  052%=      5-min Rain = 0
KEN1 151456Z 35009KT 23/12 A2994 RMK A01 T02280120  RH  051%=      5-min Rain = 0
KEN1 151457Z 35010KT 23/12 A2994 RMK A01 T02260122  RH  052%=      5-min Rain = 0
KEN1 151458Z 35010KT 23/13 A2994 RMK A01 T02260125  RH  053%=      5-min Rain = 0
KEN1 151459Z 35010KT 23/13 A2994 RMK A01 T02290126  RH  052%=      5-min Rain = 0
KEN1 151500Z 35009KT 23/12 A2994 RMK A01 T02300124  RH  051%=      5-min Rain = 0
KEN1 151501Z 00011KT 23/12 A2994 RMK A01 T02300124  RH  051%=      5-min Rain = 0
KEN1 151502Z 35011KT 23/12 A2994 RMK A01 T02300122  RH  051%=      5-min Rain = 0
KEN1 151503Z 35010KT 23/12 A2994 RMK A01 T02290121  RH  051%=      5-min Rain = 0
KEN1 151504Z 35009KT 23/12 A2994 RMK A01 T02290123  RH  051%=      5-min Rain = 0
KEN1 151505Z 34008KT 23/12 A2994 RMK A01 T02290123  RH  051%=      5-min Rain = 0
KEN1 151506Z 35007KT 23/13 A2994 RMK A01 T02300125  RH  052%=      5-min Rain = 0
KEN1 151507Z 00008G13KT 23/13 A2994 RMK A01 T02320127  RH  052%=      5-min Rain = 0
KEN1 151508Z 00011KT 23/13 A2994 RMK A01 T02340127  RH  051%=      5-min Rain = 0
KEN1 151509Z 36010KT 23/12 A2994 RMK A01 T02330124  RH  050%=      5-min Rain = 0
KEN1 151510Z 35007KT 23/12 A2994 RMK A01 T02310123  RH  050%=      5-min Rain = 0
KEN1 151511Z 36008KT 23/12 A2994 RMK A01 T02300123  RH  051%=      5-min Rain = 0
KEN1 151512Z 36008KT 23/12 A2994 RMK A01 T02300124  RH  051%=      5-min Rain = 0
KEN1 151513Z 34008KT 23/12 A2994 RMK A01 T02320124  RH  051%=      5-min Rain = 0
KEN1 151514Z 35008KT 23/13 A2994 RMK A01 T02330125  RH  051%=      5-min Rain = 0
KEN1 151515Z 00009KT 23/13 A2994 RMK A01 T02330125  RH  051%=      5-min Rain = 0
KEN1 151516Z 03009KT 24/13 A2994 RMK A01 T02350126  RH  050%=      5-min Rain = 0
KEN1 151517Z 02009KT 24/13 A2994 RMK A01 T02370126  RH  050%=      5-min Rain = 0
KEN1 151518Z 01011KT 24/13 A2993 RMK A01 T02390127  RH  050%=      5-min Rain = 0
KEN1 151519Z 00010KT 24/12 A2994 RMK A01 T02390124  RH  048%=      5-min Rain = 0
KEN1 151520Z 35008KT 24/12 A2994 RMK A01 T02360122  RH  049%=      5-min Rain = 0
KEN1 151521Z 01008KT 24/12 A2994 RMK A01 T02350123  RH  050%=      5-min Rain = 0
KEN1 151522Z 01012KT 24/12 A2993 RMK A01 T02350124  RH  050%=      5-min Rain = 0
KEN1 151523Z 00010KT 24/12 A2994 RMK A01 T02360123  RH  049%=      5-min Rain = 0
KEN1 151524Z 00008KT 24/12 A2994 RMK A01 T02350123  RH  049%=      5-min Rain = 0
KEN1 151525Z 01008KT 24/12 A2994 RMK A01 T02350124  RH  050%=      5-min Rain = 0
KEN1 151526Z 01008KT 24/13 A2994 RMK A01 T02360127  RH  051%=      5-min Rain = 0
KEN1 151527Z 35010KT 24/13 A2994 RMK A01 T02380130  RH  051%=      5-min Rain = 0
KEN1 151528Z 36009KT 24/13 A2994 RMK A01 T02390128  RH  050%=      5-min Rain = 0
KEN1 151529Z 35008KT 24/13 A2994 RMK A01 T02380128  RH  050%=      5-min Rain = 0
KEN1 151530Z 34007KT 24/13 A2994 RMK A01 T02380126  RH  049%=      5-min Rain = 0
KEN1 151531Z 35005KT 24/13 A2994 RMK A01 T02370127  RH  050%=      5-min Rain = 0
KEN1 151532Z 36009KT 24/13 A2994 RMK A01 T02370125  RH  049%=      5-min Rain = 0
KEN1 151533Z 33008KT 24/13 A2995 RMK A01 T02380129  RH  051%=      5-min Rain = 0
KEN1 151534Z 33008KT 24/13 A2995 RMK A01 T02390128  RH  050%=      5-min Rain = 0
KEN1 151535Z 33006KT 24/13 A2995 RMK A01 T02390129  RH  050%=      5-min Rain = 0
KEN1 151536Z 35008KT 24/13 A2995 RMK A01 T02390128  RH  050%=      5-min Rain = 0
KEN1 151537Z 36008KT 24/13 A2995 RMK A01 T02400128  RH  049%=      5-min Rain = 0
KEN1 151538Z 35008KT 24/13 A2995 RMK A01 T02410130  RH  050%=      5-min Rain = 0
KEN1 151539Z 35009KT 24/13 A2995 RMK A01 T02420130  RH  049%=      5-min Rain = 0
KEN1 151540Z 35007KT 24/13 A2995 RMK A01 T02430130  RH  049%=      5-min Rain = 0
KEN1 151541Z 36008KT 24/13 A2995 RMK A01 T02420129  RH  049%=      5-min Rain = 0
KEN1 151542Z 35009KT 24/13 A2995 RMK A01 T02420130  RH  050%=      5-min Rain = 0
KEN1 151543Z 35009KT 24/13 A2994 RMK A01 T02430131  RH  049%=      5-min Rain = 0
KEN1 151544Z 35007KT 25/13 A2994 RMK A01 T02450129  RH  048%=      5-min Rain = 0
KEN1 151545Z 35007KT 24/13 A2994 RMK A01 T02440129  RH  049%=      5-min Rain = 0
KEN1 151546Z 00006KT 24/13 A2994 RMK A01 T02430127  RH  048%=      5-min Rain = 0
KEN1 151547Z 02006KT 24/13 A2994 RMK A01 T02420126  RH  048%=      5-min Rain = 0
KEN1 151548Z 01003KT 24/13 A2994 RMK A01 T02420128  RH  049%=      5-min Rain = 0
KEN1 151549Z 34007KT 24/13 A2994 RMK A01 T02430128  RH  049%=      5-min Rain = 0
KEN1 151550Z 35009KT 24/13 A2994 RMK A01 T02440129  RH  049%=      5-min Rain = 0
KEN1 151551Z 34005KT 24/13 A2994 RMK A01 T02440128  RH  048%=      5-min Rain = 0
KEN1 151552Z 01006KT 24/13 A2994 RMK A01 T02440128  RH  049%=      5-min Rain = 0
KEN1 151553Z 35004KT 24/13 A2994 RMK A01 T02440129  RH  049%=      5-min Rain = 0
KEN1 151554Z 33006KT 25/13 A2994 RMK A01 T02460131  RH  049%=      5-min Rain = 0
KEN1 151555Z 00008KT 25/13 A2994 RMK A01 T02470131  RH  048%=      5-min Rain = 0
KEN1 151556Z 02005KT 25/13 A2994 RMK A01 T02470129  RH  048%=      5-min Rain = 0
KEN1 151557Z 35006KT 25/13 A2994 RMK A01 T02470131  RH  049%=      5-min Rain = 0
KEN1 151558Z 34006KT 25/13 A2995 RMK A01 T02480130  RH  048%=      5-min Rain = 0
KEN1 151559Z 34006KT 25/13 A2995 RMK A01 T02480131  RH  048%=      5-min Rain = 0
KEN1 151600Z 35007KT 25/13 A2995 RMK A01 T02480129  RH  048%=      5-min Rain = 0
KEN1 151601Z 35007KT 25/13 A2995 RMK A01 T02470129  RH  048%=      5-min Rain = 0
KEN1 151602Z 36005KT 25/13 A2995 RMK A01 T02470130  RH  048%=      5-min Rain = 0
KEN1 151603Z 01005KT 25/13 A2995 RMK A01 T02470127  RH  047%=      5-min Rain = 0
KEN1 151604Z 02004KT 25/13 A2995 RMK A01 T02470128  RH  047%=      5-min Rain = 0
KEN1 151605Z 36002KT 25/13 A2995 RMK A01 T02460125  RH  047%=      5-min Rain = 0
KEN1 151606Z 31004KT 25/13 A2995 RMK A01 T02460129  RH  048%=      5-min Rain = 0
KEN1 151607Z 34005KT 25/13 A2995 RMK A01 T02470130  RH  048%=      5-min Rain = 0
KEN1 151608Z 36007KT 25/13 A2995 RMK A01 T02490133  RH  048%=      5-min Rain = 0
KEN1 151609Z 34004KT 25/13 A2995 RMK A01 T02510129  RH  047%=      5-min Rain = 0
KEN1 151610Z 33006KT 25/13 A2995 RMK A01 T02510132  RH  048%=      5-min Rain = 0
KEN1 151611Z 35005KT 25/13 A2995 RMK A01 T02510130  RH  047%=      5-min Rain = 0
KEN1 151612Z 34005KT 25/13 A2995 RMK A01 T02510132  RH  048%=      5-min Rain = 0
KEN1 151613Z 36007KT 25/13 A2995 RMK A01 T02510133  RH  048%=      5-min Rain = 0
KEN1 151614Z 34007KT 25/13 A2995 RMK A01 T02540133  RH  047%=      5-min Rain = 0
KEN1 151615Z 33007KT 25/13 A2995 RMK A01 T02530129  RH  046%=      5-min Rain = 0
KEN1 151616Z 33005KT 25/13 A2995 RMK A01 T02520132  RH  047%=      5-min Rain = 0
KEN1 151617Z 01002KT 25/13 A2995 RMK A01 T02520131  RH  047%=      5-min Rain = 0
KEN1 151618Z 34004KT 25/13 A2995 RMK A01 T02520132  RH  047%=      5-min Rain = 0
KEN1 151619Z 35006KT 25/13 A2995 RMK A01 T02540134  RH  047%=      5-min Rain = 0
KEN1 151620Z 33008KT 26/14 A2995 RMK A01 T02560135  RH  047%=      5-min Rain = 0
KEN1 151621Z 31004KT 26/14 A2995 RMK A01 T02580136  RH  047%=      5-min Rain = 0
KEN1 151622Z 32006KT 26/13 A2995 RMK A01 T02590134  RH  046%=      5-min Rain = 0
KEN1 151623Z 31006KT 26/13 A2995 RMK A01 T02580133  RH  046%=      5-min Rain = 0
KEN1 151624Z 30004KT 26/13 A2995 RMK A01 T02550130  RH  046%=      5-min Rain = 0
KEN1 151625Z 31003KT 25/13 A2995 RMK A01 T02540132  RH  047%=      5-min Rain = 0
KEN1 151626Z 34003KT 26/14 A2995 RMK A01 T02560139  RH  048%=      5-min Rain = 0
KEN1 151627Z 01004KT 26/14 A2995 RMK A01 T02590139  RH  048%=      5-min Rain = 0
KEN1 151628Z 36004KT 26/14 A2995 RMK A01 T02630139  RH  046%=      5-min Rain = 0
KEN1 151629Z 35006KT 26/14 A2995 RMK A01 T02640138  RH  046%=      5-min Rain = 0
KEN1 151630Z 00006KT 26/14 A2995 RMK A01 T02640137  RH  046%=      5-min Rain = 0
KEN1 151631Z 35006KT 26/14 A2995 RMK A01 T02620136  RH  046%=      5-min Rain = 0
KEN1 151632Z 31008KT 26/14 A2995 RMK A01 T02620138  RH  046%=      5-min Rain = 0
KEN1 151633Z 33006KT 26/14 A2995 RMK A01 T02630141  RH  047%=      5-min Rain = 0
KEN1 151634Z 34006KT 27/14 A2995 RMK A01 T02650141  RH  046%=      5-min Rain = 0
KEN1 151635Z 36004KT 27/14 A2995 RMK A01 T02660142  RH  046%=      5-min Rain = 0
KEN1 151636Z 36010KT 27/14 A2995 RMK A01 T02680144  RH  046%=      5-min Rain = 0
KEN1 151637Z 01008KT 27/14 A2995 RMK A01 T02700140  RH  045%=      5-min Rain = 0
KEN1 151638Z 02007KT 27/14 A2995 RMK A01 T02700138  RH  044%=      5-min Rain = 0
KEN1 151639Z 03005KT 27/14 A2995 RMK A01 T02670135  RH  044%=      5-min Rain = 0
KEN1 151640Z 01004KT 27/14 A2995 RMK A01 T02650138  RH  046%=      5-min Rain = 0
KEN1 151641Z 02007KT 27/14 A2995 RMK A01 T02670143  RH  046%=      5-min Rain = 0
KEN1 151642Z 03006KT 27/14 A2995 RMK A01 T02700141  RH  045%=      5-min Rain = 0
KEN1 151643Z 03004KT 27/14 A2995 RMK A01 T02720143  RH  045%=      5-min Rain = 0
KEN1 151644Z 03007KT 27/14 A2995 RMK A01 T02740143  RH  045%=      5-min Rain = 0
KEN1 151645Z 01006KT 27/14 A2995 RMK A01 T02740140  RH  044%=      5-min Rain = 0
KEN1 151646Z 35008KT 27/14 A2995 RMK A01 T02730141  RH  044%=      5-min Rain = 0
KEN1 151647Z 34011KT 27/14 A2995 RMK A01 T02720142  RH  045%=      5-min Rain = 0
KEN1 151648Z 34007KT 27/14 A2995 RMK A01 T02710137  RH  044%=      5-min Rain = 0
KEN1 151649Z 02010KT 27/14 A2995 RMK A01 T02690139  RH  045%=      5-min Rain = 0
KEN1 151650Z 02008KT 27/14 A2995 RMK A01 T02710137  RH  044%=      5-min Rain = 0
KEN1 151651Z 02008KT 27/14 A2995 RMK A01 T02730140  RH  044%=      5-min Rain = 0
KEN1 151652Z 03009KT 27/14 A2995 RMK A01 T02740137  RH  043%=      5-min Rain = 0
KEN1 151653Z 01008KT 27/14 A2995 RMK A01 T02740141  RH  044%=      5-min Rain = 0
KEN1 151654Z 00005KT 28/14 A2995 RMK A01 T02750136  RH  042%=      5-min Rain = 0
KEN1 151655Z 01003KT 27/14 A2995 RMK A01 T02740138  RH  043%=      5-min Rain = 0
KEN1 151656Z 02008KT 28/14 A2995 RMK A01 T02760143  RH  044%=      5-min Rain = 0
KEN1 151657Z 01006KT 28/14 A2995 RMK A01 T02780135  RH  041%=      5-min Rain = 0
KEN1 151658Z 02008G15KT 28/14 A2995 RMK A01 T02770137  RH  042%=      5-min Rain = 0
KEN1 151659Z 05009KT 28/14 A2995 RMK A01 T02760140  RH  043%=      5-min Rain = 0
KEN1 151700Z 05008KT 28/14 A2995 RMK A01 T02790142  RH  043%=      5-min Rain = 0
KEN1 151701Z 06009KT 28/14 A2995 RMK A01 T02810140  RH  042%=      5-min Rain = 0
KEN1 151702Z 06008KT 28/14 A2995 RMK A01 T02810142  RH  042%=      5-min Rain = 0
KEN1 151703Z 05007KT 28/14 A2995 RMK A01 T02810139  RH  042%=      5-min Rain = 0
KEN1 151704Z 04005KT 28/14 A2995 RMK A01 T02800139  RH  042%=      5-min Rain = 0
KEN1 151705Z 01004KT 28/14 A2995 RMK A01 T02790143  RH  043%=      5-min Rain = 0
KEN1 151706Z 02007KT 28/14 A2995 RMK A01 T02800143  RH  043%=      5-min Rain = 0
KEN1 151707Z 01010KT 28/14 A2995 RMK A01 T02820142  RH  042%=      5-min Rain = 0
KEN1 151708Z 02008KT 28/14 A2995 RMK A01 T02830138  RH  041%=      5-min Rain = 0
KEN1 151709Z 02008KT 28/14 A2995 RMK A01 T02800137  RH  041%=      5-min Rain = 0
KEN1 151710Z 03005KT 28/14 A2995 RMK A01 T02790137  RH  042%=      5-min Rain = 0
KEN1 151711Z 02005KT 28/14 A2995 RMK A01 T02770136  RH  042%=      5-min Rain = 0
KEN1 151712Z 03006KT 28/14 A2995 RMK A01 T02760137  RH  042%=      5-min Rain = 0
KEN1 151713Z 02006KT 28/14 A2995 RMK A01 T02770142  RH  044%=      5-min Rain = 0
KEN1 151714Z 02007KT 28/14 A2995 RMK A01 T02800141  RH  043%=      5-min Rain = 0
KEN1 151715Z 36010KT 28/14 A2995 RMK A01 T02800139  RH  042%=      5-min Rain = 0
KEN1 151716Z 01007KT 28/14 A2995 RMK A01 T02780140  RH  043%=      5-min Rain = 0
KEN1 151717Z 02007KT 28/14 A2995 RMK A01 T02780138  RH  042%=      5-min Rain = 0
KEN1 151718Z 01006KT 28/14 A2995 RMK A01 T02780136  RH  041%=      5-min Rain = 0
KEN1 151719Z 02005KT 28/14 A2995 RMK A01 T02770135  RH  042%=      5-min Rain = 0
KEN1 151720Z 04005KT 28/14 A2995 RMK A01 T02770137  RH  042%=      5-min Rain = 0
KEN1 151721Z 04004KT 28/14 A2995 RMK A01 T02770139  RH  043%=      5-min Rain = 0
KEN1 151722Z 34005G16KT 28/14 A2995 RMK A01 T02800141  RH  043%=      5-min Rain = 0
KEN1 151723Z 03011G19KT 28/14 A2995 RMK A01 T02840142  RH  042%=      5-min Rain = 0
KEN1 151724Z 01010KT 29/14 A2995 RMK A01 T02860140  RH  041%=      5-min Rain = 0
KEN1 151725Z 02008KT 29/14 A2995 RMK A01 T02860137  RH  040%=      5-min Rain = 0
KEN1 151726Z 03006KT 28/14 A2995 RMK A01 T02840136  RH  040%=      5-min Rain = 0
KEN1 151727Z 02007KT 28/14 A2995 RMK A01 T02820138  RH  041%=      5-min Rain = 0
KEN1 151728Z 02007KT 28/14 A2995 RMK A01 T02840143  RH  042%=      5-min Rain = 0
KEN1 151729Z 01008KT 29/14 A2995 RMK A01 T02880144  RH  041%=      5-min Rain = 0
KEN1 151730Z 01008KT 29/14 A2995 RMK A01 T02900141  RH  040%=      5-min Rain = 0
KEN1 151731Z 03007KT 29/14 A2995 RMK A01 T02880137  RH  039%=      5-min Rain = 0
KEN1 151732Z 02007KT 29/14 A2995 RMK A01 T02850141  RH  041%=      5-min Rain = 0
KEN1 151733Z 01009KT 29/14 A2995 RMK A01 T02850141  RH  041%=      5-min Rain = 0
KEN1 151734Z 36010KT 29/14 A2995 RMK A01 T02860139  RH  040%=      5-min Rain = 0
KEN1 151735Z 02011KT 29/14 A2995 RMK A01 T02850140  RH  041%=      5-min Rain = 0
KEN1 151736Z 01009KT 28/14 A2995 RMK A01 T02840137  RH  040%=      5-min Rain = 0
KEN1 151737Z 03009KT 28/14 A2995 RMK A01 T02830137  RH  041%=      5-min Rain = 0
KEN1 151738Z 02013KT 28/14 A2995 RMK A01 T02840138  RH  041%=      5-min Rain = 0
KEN1 151739Z 03012KT 29/14 A2995 RMK A01 T02860136  RH  040%=      5-min Rain = 0
KEN1 151740Z 03010KT 29/14 A2995 RMK A01 T02880138  RH  040%=      5-min Rain = 0
KEN1 151741Z 03011KT 29/14 A2995 RMK A01 T02910136  RH  038%=      5-min Rain = 0
KEN1 151742Z 02010KT 29/14 A2995 RMK A01 T02900137  RH  039%=      5-min Rain = 0
KEN1 151743Z 03009KT 29/14 A2995 RMK A01 T02890135  RH  039%=      5-min Rain = 0
KEN1 151744Z 03011KT 29/14 A2994 RMK A01 T02860135  RH  040%=      5-min Rain = 0
KEN1 151745Z 02011KT 29/14 A2994 RMK A01 T02860139  RH  041%=      5-min Rain = 0
KEN1 151746Z 04012KT 29/14 A2995 RMK A01 T02900139  RH  040%=      5-min Rain = 0
KEN1 151747Z 03011KT 29/14 A2995 RMK A01 T02910135  RH  038%=      5-min Rain = 0
KEN1 151748Z 01010KT 29/14 A2995 RMK A01 T02900138  RH  039%=      5-min Rain = 0
KEN1 151749Z 01008KT 29/14 A2995 RMK A01 T02900137  RH  039%=      5-min Rain = 0
KEN1 151750Z 01008KT 29/14 A2995 RMK A01 T02900137  RH  039%=      5-min Rain = 0
KEN1 151751Z 01009KT 29/13 A2995 RMK A01 T02890134  RH  039%=      5-min Rain = 0
KEN1 151752Z 03009KT 29/14 A2994 RMK A01 T02860135  RH  039%=      5-min Rain = 0
KEN1 151753Z 04012KT 29/14 A2994 RMK A01 T02870136  RH  040%=      5-min Rain = 0
KEN1 151754Z 04008KT 29/13 A2994 RMK A01 T02880133  RH  039%=      5-min Rain = 0
KEN1 151755Z 03005KT 29/13 A2994 RMK A01 T02870132  RH  038%=      5-min Rain = 0
KEN1 151756Z 06006KT 29/13 A2994 RMK A01 T02850132  RH  039%=      5-min Rain = 0
KEN1 151757Z 04010KT 29/14 A2994 RMK A01 T02860136  RH  040%=      5-min Rain = 0
KEN1 151758Z 05012KT 29/14 A2994 RMK A01 T02870135  RH  039%=      5-min Rain = 0
KEN1 151759Z 04010KT 29/13 A2994 RMK A01 T02870134  RH  039%=      5-min Rain = 0
KEN1 151800Z 05008KT 29/14 A2994 RMK A01 T02870136  RH  040%=      5-min Rain = 0
KEN1 151801Z 03007KT 29/13 A2994 RMK A01 T02880134  RH  039%=      5-min Rain = 0
KEN1 151802Z 01012KT 29/14 A2994 RMK A01 T02870138  RH  040%=      5-min Rain = 0
KEN1 151803Z 01011KT 29/14 A2994 RMK A01 T02910138  RH  039%=      5-min Rain = 0
KEN1 151804Z 02010KT 29/14 A2994 RMK A01 T02920137  RH  039%=      5-min Rain = 0
KEN1 151805Z 04008KT 29/14 A2994 RMK A01 T02900138  RH  039%=      5-min Rain = 0
KEN1 151806Z 03012KT 29/14 A2993 RMK A01 T02910137  RH  039%=      5-min Rain = 0
KEN1 151807Z 04011KT 29/14 A2994 RMK A01 T02930138  RH  039%=      5-min Rain = 0
KEN1 151808Z 03010KT 29/14 A2994 RMK A01 T02930135  RH  038%=      5-min Rain = 0
KEN1 151809Z 03010KT 29/14 A2993 RMK A01 T02910137  RH  039%=      5-min Rain = 0
KEN1 151810Z 05010KT 29/14 A2993 RMK A01 T02930138  RH  039%=      5-min Rain = 0
KEN1 151811Z 06007KT 29/14 A2993 RMK A01 T02930137  RH  038%=      5-min Rain = 0
KEN1 151812Z 07009KT 29/14 A2993 RMK A01 T02920141  RH  040%=      5-min Rain = 0
KEN1 151813Z 06008KT 29/14 A2993 RMK A01 T02930140  RH  039%=      5-min Rain = 0
KEN1 151814Z 05007KT 29/14 A2993 RMK A01 T02940142  RH  040%=      5-min Rain = 0
KEN1 151815Z 04009G14KT 30/14 A2993 RMK A01 T02970143  RH  039%=      5-min Rain = 0
KEN1 151816Z 04009KT 30/14 A2993 RMK A01 T03000139  RH  037%=      5-min Rain = 0
KEN1 151817Z 02010KT 30/14 A2993 RMK A01 T02990140  RH  038%=      5-min Rain = 0
KEN1 151818Z 02009KT 30/14 A2993 RMK A01 T03000139  RH  037%=      5-min Rain = 0
KEN1 151819Z 04010KT 30/13 A2993 RMK A01 T03020134  RH  036%=      5-min Rain = 0
KEN1 151820Z 03008KT 30/13 A2993 RMK A01 T03010132  RH  035%=      5-min Rain = 0
KEN1 151821Z 03008KT 30/13 A2993 RMK A01 T02980134  RH  037%=      5-min Rain = 0
KEN1 151822Z 05008KT 29/13 A2993 RMK A01 T02940133  RH  037%=      5-min Rain = 0
KEN1 151823Z 02011KT 29/14 A2993 RMK A01 T02920137  RH  039%=      5-min Rain = 0
KEN1 151824Z 03014KT 30/14 A2993 RMK A01 T02970136  RH  037%=      5-min Rain = 0
KEN1 151825Z 04012KT 30/13 A2993 RMK A01 T02980129  RH  035%=      5-min Rain = 0
KEN1 151826Z 03009KT 29/13 A2993 RMK A01 T02940130  RH  036%=      5-min Rain = 0
KEN1 151827Z 03010KT 29/13 A2993 RMK A01 T02930130  RH  037%=      5-min Rain = 0
KEN1 151828Z 01008KT 29/13 A2993 RMK A01 T02930126  RH  036%=      5-min Rain = 0
KEN1 151829Z 02006KT 29/13 A2993 RMK A01 T02920128  RH  036%=      5-min Rain = 0
KEN1 151830Z 04011G17KT 29/13 A2993 RMK A01 T02920134  RH  038%=      5-min Rain = 0
KEN1 151831Z 05012KT 29/14 A2993 RMK A01 T02940135  RH  038%=      5-min Rain = 0
KEN1 151832Z 05009KT 29/13 A2993 RMK A01 T02930131  RH  037%=      5-min Rain = 0
KEN1 151833Z 04008KT 29/13 A2993 RMK A01 T02900129  RH  037%=      5-min Rain = 0
KEN1 151834Z 04007KT 29/12 A2993 RMK A01 T02870124  RH  037%=      5-min Rain = 0
KEN1 151835Z 03008KT 29/13 A2993 RMK A01 T02860125  RH  037%=      5-min Rain = 0
KEN1 151836Z 04006KT 29/13 A2993 RMK A01 T02860128  RH  038%=      5-min Rain = 0
KEN1 151837Z 05007KT 29/13 A2993 RMK A01 T02870128  RH  038%=      5-min Rain = 0
KEN1 151838Z 06005KT 29/14 A2993 RMK A01 T02890136  RH  039%=      5-min Rain = 0
KEN1 151839Z 06007KT 29/13 A2993 RMK A01 T02930131  RH  037%=      5-min Rain = 0
KEN1 151840Z 05008KT 29/13 A2993 RMK A01 T02920133  RH  038%=      5-min Rain = 0
KEN1 151841Z 04007KT 29/13 A2993 RMK A01 T02930133  RH  037%=      5-min Rain = 0
KEN1 151842Z 05005KT 29/13 A2993 RMK A01 T02940131  RH  037%=      5-min Rain = 0
KEN1 151843Z 04003KT 29/13 A2993 RMK A01 T02930132  RH  037%=      5-min Rain = 0
KEN1 151844Z 04009KT 29/13 A2993 RMK A01 T02940132  RH  037%=      5-min Rain = 0
KEN1 151845Z 03006KT 29/13 A2993 RMK A01 T02940125  RH  035%=      5-min Rain = 0
KEN1 151846Z 05006KT 29/13 A2993 RMK A01 T02930127  RH  036%=      5-min Rain = 0
KEN1 151847Z 04007KT 29/13 A2993 RMK A01 T02930126  RH  036%=      5-min Rain = 0
KEN1 151848Z 04007KT 30/13 A2993 RMK A01 T02950128  RH  036%=      5-min Rain = 0
KEN1 151849Z 04009G15KT 30/13 A2993 RMK A01 T02960131  RH  036%=      5-min Rain = 0
KEN1 151850Z 03010KT 30/13 A2993 RMK A01 T02960134  RH  037%=      5-min Rain = 0
KEN1 151851Z 05008KT 30/13 A2993 RMK A01 T02950133  RH  037%=      5-min Rain = 0
KEN1 151852Z 04008KT 29/13 A2993 RMK A01 T02940131  RH  037%=      5-min Rain = 0
KEN1 151853Z 06007KT 30/13 A2993 RMK A01 T02950131  RH  037%=      5-min Rain = 0
KEN1 151854Z 06007KT 30/13 A2993 RMK A01 T02950133  RH  037%=      5-min Rain = 0
KEN1 151855Z 05007KT 30/13 A2992 RMK A01 T02960134  RH  037%=      5-min Rain = 0
KEN1 151856Z 02007KT 30/14 A2992 RMK A01 T02970136  RH  037%=      5-min Rain = 0
KEN1 151857Z 01007KT 30/13 A2992 RMK A01 T03010131  RH  035%=      5-min Rain = 0
KEN1 151858Z 02007KT 30/13 A2992 RMK A01 T03010132  RH  035%=      5-min Rain = 0
KEN1 151859Z 03011KT 30/13 A2992 RMK A01 T03020129  RH  034%=      5-min Rain = 0
KEN1 151900Z 03009KT 30/12 A2992 RMK A01 T03030124  RH  033%=      5-min Rain = 0
KEN1 151901Z 03007KT 30/13 A2992 RMK A01 T03020130  RH  035%=      5-min Rain = 0
KEN1 151902Z 03008KT 31/13 A2992 RMK A01 T03050134  RH  035%=      5-min Rain = 0
KEN1 151903Z 05009KT 31/14 A2992 RMK A01 T03080138  RH  035%=      5-min Rain = 0
KEN1 151904Z 06010KT 31/13 A2992 RMK A01 T03110134  RH  034%=      5-min Rain = 0
KEN1 151905Z 07009KT 31/13 A2992 RMK A01 T03100130  RH  033%=      5-min Rain = 0
KEN1 151906Z 06007KT 31/13 A2992 RMK A01 T03050130  RH  034%=      5-min Rain = 0
KEN1 151907Z 04010KT 30/13 A2992 RMK A01 T03040134  RH  035%=      5-min Rain = 0
KEN1 151908Z 04012KT 31/13 A2992 RMK A01 T03060129  RH  034%=      5-min Rain = 0
KEN1 151909Z 05012KT 30/13 A2992 RMK A01 T03030131  RH  035%=      5-min Rain = 0
KEN1 151910Z 05009KT 30/13 A2992 RMK A01 T03030130  RH  035%=      5-min Rain = 0
KEN1 151911Z 05008KT 30/13 A2992 RMK A01 T03030132  RH  035%=      5-min Rain = 0
KEN1 151912Z 05004KT 30/13 A2992 RMK A01 T03020129  RH  035%=      5-min Rain = 0
KEN1 151913Z 06007KT 30/14 A2992 RMK A01 T03020138  RH  037%=      5-min Rain = 0
KEN1 151914Z 06009KT 31/14 A2992 RMK A01 T03060135  RH  035%=      5-min Rain = 0
KEN1 151915Z 06007KT 31/14 A2992 RMK A01 T03060137  RH  036%=      5-min Rain = 0
KEN1 151916Z 07008KT 31/13 A2992 RMK A01 T03060134  RH  035%=      5-min Rain = 0
KEN1 151917Z 06008KT 31/14 A2992 RMK A01 T03060136  RH  035%=      5-min Rain = 0
KEN1 151918Z 05005KT 31/13 A2992 RMK A01 T03050126  RH  033%=      5-min Rain = 0
KEN1 151919Z 03007KT 30/12 A2992 RMK A01 T03030121  RH  033%=      5-min Rain = 0
KEN1 151920Z 03011KT 30/12 A2992 RMK A01 T03020123  RH  033%=      5-min Rain = 0
KEN1 151921Z 01009KT 30/12 A2992 RMK A01 T03030121  RH  033%=      5-min Rain = 0
KEN1 151922Z 06009KT 30/12 A2992 RMK A01 T03020124  RH  033%=      5-min Rain = 0
KEN1 151923Z 06007KT 30/12 A2992 RMK A01 T03030121  RH  033%=      5-min Rain = 0
KEN1 151924Z 03008KT 31/12 A2992 RMK A01 T03050123  RH  033%=      5-min Rain = 0
KEN1 151925Z 04010G15KT 31/13 A2991 RMK A01 T03070130  RH  034%=      5-min Rain = 0
KEN1 151926Z 06013KT 31/13 A2992 RMK A01 T03080131  RH  034%=      5-min Rain = 0
KEN1 151927Z 06014KT 31/13 A2991 RMK A01 T03070129  RH  034%=      5-min Rain = 0
KEN1 151928Z 04012KT 31/13 A2992 RMK A01 T03070130  RH  034%=      5-min Rain = 0
KEN1 151929Z 03012KT 31/13 A2992 RMK A01 T03070132  RH  034%=      5-min Rain = 0
KEN1 151930Z 02011KT 31/13 A2992 RMK A01 T03070130  RH  034%=      5-min Rain = 0
KEN1 151931Z 03009KT 31/13 A2992 RMK A01 T03050128  RH  034%=      5-min Rain = 0
KEN1 151932Z 02008KT 31/13 A2992 RMK A01 T03060129  RH  034%=      5-min Rain = 0
KEN1 151933Z 02004KT 31/12 A2992 RMK A01 T03060123  RH  032%=      5-min Rain = 0
KEN1 151934Z 04005G11KT 31/13 A2992 RMK A01 T03060127  RH  033%=      5-min Rain = 0
KEN1 151935Z 06006KT 31/12 A2992 RMK A01 T03070123  RH  032%=      5-min Rain = 0
KEN1 151936Z 05007KT 31/13 A2992 RMK A01 T03080125  RH  033%=      5-min Rain = 0
KEN1 151937Z 05008KT 31/13 A2992 RMK A01 T03100126  RH  033%=      5-min Rain = 0
KEN1 151938Z 06006KT 31/13 A2991 RMK A01 T03080128  RH  033%=      5-min Rain = 0
KEN1 151939Z 05010KT 31/13 A2991 RMK A01 T03080126  RH  033%=      5-min Rain = 0
KEN1 151940Z 06012KT 31/13 A2991 RMK A01 T03070127  RH  033%=      5-min Rain = 0
KEN1 151941Z 07010KT 31/13 A2991 RMK A01 T03070128  RH  034%=      5-min Rain = 0
KEN1 151942Z 05011KT 31/13 A2992 RMK A01 T03070132  RH  034%=      5-min Rain = 0
KEN1 151943Z 04009KT 31/13 A2992 RMK A01 T03090126  RH  033%=      5-min Rain = 0
KEN1 151944Z 04009KT 31/13 A2992 RMK A01 T03090125  RH  032%=      5-min Rain = 0
KEN1 151945Z 05007KT 31/12 A2992 RMK A01 T03090118  RH  031%=      5-min Rain = 0
KEN1 151946Z 05008KT 31/12 A2992 RMK A01 T03070119  RH  032%=      5-min Rain = 0
KEN1 151947Z 05005KT 31/12 A2992 RMK A01 T03070124  RH  033%=      5-min Rain = 0
KEN1 151948Z 03005KT 31/12 A2991 RMK A01 T03090122  RH  032%=      5-min Rain = 0
KEN1 151949Z 06005KT 31/12 A2991 RMK A01 T03090124  RH  032%=      5-min Rain = 0
KEN1 151950Z 03006G11KT 31/13 A2991 RMK A01 T03090127  RH  033%=      5-min Rain = 0
KEN1 151951Z 03011KT 31/13 A2991 RMK A01 T03100132  RH  034%=      5-min Rain = 0
KEN1 151952Z 05009KT 31/13 A2992 RMK A01 T03110128  RH  033%=      5-min Rain = 0
KEN1 151953Z 05009KT 31/12 A2992 RMK A01 T03090123  RH  032%=      5-min Rain = 0
KEN1 151954Z 02010KT 31/12 A2991 RMK A01 T03070124  RH  033%=      5-min Rain = 0
KEN1 151955Z 01008KT 31/12 A2991 RMK A01 T03060124  RH  033%=      5-min Rain = 0
KEN1 151956Z 02007KT 31/13 A2991 RMK A01 T03050129  RH  034%=      5-min Rain = 0
KEN1 151957Z 03006KT 30/13 A2991 RMK A01 T03040126  RH  034%=      5-min Rain = 0
KEN1 151958Z 03007KT 30/13 A2991 RMK A01 T03020128  RH  034%=      5-min Rain = 0
KEN1 151959Z 04012KT 30/13 A2991 RMK A01 T03020134  RH  036%=      5-min Rain = 0
KEN1 152000Z 05010KT 30/13 A2991 RMK A01 T03040133  RH  035%=      5-min Rain = 0
KEN1 152001Z 04007KT 31/13 A2991 RMK A01 T03050133  RH  035%=      5-min Rain = 0
KEN1 152002Z 05008KT 31/13 A2991 RMK A01 T03060133  RH  035%=      5-min Rain = 0
KEN1 152003Z 05009G14KT 31/13 A2991 RMK A01 T03070133  RH  035%=      5-min Rain = 0
KEN1 152004Z 04013KT 31/13 A2991 RMK A01 T03070128  RH  033%=      5-min Rain = 0
KEN1 152005Z 02010KT 31/13 A2991 RMK A01 T03080125  RH  033%=      5-min Rain = 0
KEN1 152006Z 04010KT 31/13 A2991 RMK A01 T03090128  RH  033%=      5-min Rain = 0
KEN1 152007Z 07008KT 31/13 A2991 RMK A01 T03100133  RH  034%=      5-min Rain = 0
KEN1 152008Z 05006KT 31/13 A2991 RMK A01 T03130134  RH  034%=      5-min Rain = 0
KEN1 152009Z 04005KT 31/14 A2991 RMK A01 T03140137  RH  034%=      5-min Rain = 0
KEN1 152010Z 02006KT 32/13 A2991 RMK A01 T03160134  RH  033%=      5-min Rain = 0
KEN1 152011Z 34007KT 32/13 A2991 RMK A01 T03180130  RH  032%=      5-min Rain = 0
KEN1 152012Z 36007KT 32/13 A2991 RMK A01 T03170125  RH  031%=      5-min Rain = 0
KEN1 152013Z 01006KT 32/12 A2991 RMK A01 T03150121  RH  031%=      5-min Rain = 0
KEN1 152014Z 03008KT 31/13 A2991 RMK A01 T03130128  RH  032%=      5-min Rain = 0
KEN1 152015Z 04010KT 32/13 A2991 RMK A01 T03160130  RH  032%=      5-min Rain = 0
KEN1 152016Z 02007KT 32/13 A2991 RMK A01 T03160127  RH  032%=      5-min Rain = 0
KEN1 152017Z 05007KT 31/13 A2991 RMK A01 T03140129  RH  032%=      5-min Rain = 0
KEN1 152018Z 04008G13KT 31/13 A2991 RMK A01 T03100129  RH  033%=      5-min Rain = 0
KEN1 152019Z 05015KT 31/13 A2991 RMK A01 T03100134  RH  034%=      5-min Rain = 0
KEN1 152020Z 05015KT 31/13 A2991 RMK A01 T03110132  RH  034%=      5-min Rain = 0
KEN1 152021Z 06011KT 31/13 A2991 RMK A01 T03110132  RH  033%=      5-min Rain = 0
KEN1 152022Z 05012KT 31/13 A2991 RMK A01 T03120134  RH  034%=      5-min Rain = 0
KEN1 152023Z 06011KT 31/13 A2991 RMK A01 T03130131  RH  033%=      5-min Rain = 0
KEN1 152024Z 07009KT 31/13 A2991 RMK A01 T03080129  RH  034%=      5-min Rain = 0
KEN1 152025Z 07009KT 30/13 A2991 RMK A01 T03030129  RH  034%=      5-min Rain = 0
KEN1 152026Z 08008KT 30/13 A2991 RMK A01 T03010129  RH  035%=      5-min Rain = 0
KEN1 152027Z 06009KT 30/13 A2991 RMK A01 T03000128  RH  035%=      5-min Rain = 0
KEN1 152028Z 05008KT 30/13 A299 RMK A01 T02980125  RH  034%=      5-min Rain = 0
KEN1 152029Z 05009KT 30/13 A299 RMK A01 T02980126  RH  035%=      5-min Rain = 0
KEN1 152030Z 07010KT 30/12 A299 RMK A01 T02980124  RH  034%=      5-min Rain = 0
KEN1 152031Z 04013KT 30/12 A299 RMK A01 T02980121  RH  034%=      5-min Rain = 0
KEN1 152032Z 02010KT 30/12 A299 RMK A01 T02970122  RH  034%=      5-min Rain = 0
KEN1 152033Z 01010KT 30/12 A299 RMK A01 T02970119  RH  033%=      5-min Rain = 0
KEN1 152034Z 01008KT 30/12 A299 RMK A01 T02960115  RH  033%=      5-min Rain = 0
KEN1 152035Z 02007KT 30/12 A299 RMK A01 T02960116  RH  033%=      5-min Rain = 0
KEN1 152036Z 03009KT 30/11 A299 RMK A01 T02950114  RH  033%=      5-min Rain = 0
KEN1 152037Z 04010KT 30/11 A299 RMK A01 T02950114  RH  033%=      5-min Rain = 0
KEN1 152038Z 03009KT 30/11 A299 RMK A01 T02950108  RH  031%=      5-min Rain = 0
KEN1 152039Z 01007KT 30/11 A299 RMK A01 T02950105  RH  031%=      5-min Rain = 0
KEN1 152040Z 02006KT 29/11 A299 RMK A01 T02940107  RH  031%=      5-min Rain = 0
KEN1 152041Z 04009KT 29/11 A299 RMK A01 T02940113  RH  033%=      5-min Rain = 0
KEN1 152042Z 03010KT 29/12 A299 RMK A01 T02940122  RH  035%=      5-min Rain = 0
KEN1 152043Z 03012KT 29/12 A299 RMK A01 T02940121  RH  034%=      5-min Rain = 0
KEN1 152044Z 04013KT 29/12 A2989 RMK A01 T02940122  RH  035%=      5-min Rain = 0
KEN1 152045Z 05012KT 29/12 A2989 RMK A01 T02930123  RH  035%=      5-min Rain = 0
KEN1 152046Z 05011KT 29/12 A299 RMK A01 T02920122  RH  035%=      5-min Rain = 0
KEN1 152047Z 06011KT 29/12 A299 RMK A01 T02920120  RH  035%=      5-min Rain = 0
KEN1 152048Z 05011KT 29/12 A299 RMK A01 T02910117  RH  034%=      5-min Rain = 0
KEN1 152049Z 05012KT 29/12 A299 RMK A01 T02910122  RH  035%=      5-min Rain = 0
KEN1 152050Z 05010KT 29/13 A299 RMK A01 T02900125  RH  036%=      5-min Rain = 0
KEN1 152051Z 04010KT 29/13 A299 RMK A01 T02900128  RH  037%=      5-min Rain = 0
KEN1 152052Z 05011KT 29/13 A299 RMK A01 T02890128  RH  037%=      5-min Rain = 0
KEN1 152053Z 06011KT 29/13 A299 RMK A01 T02890130  RH  037%=      5-min Rain = 0
KEN1 152054Z 05011KT 29/13 A299 RMK A01 T02890130  RH  038%=      5-min Rain = 0
KEN1 152055Z 06011KT 29/13 A299 RMK A01 T02880131  RH  038%=      5-min Rain = 0
KEN1 152056Z 06013KT 29/13 A299 RMK A01 T02870131  RH  038%=      5-min Rain = 0
KEN1 152057Z 05012KT 29/13 A299 RMK A01 T02860131  RH  039%=      5-min Rain = 0
KEN1 152058Z 05014KT 28/13 A299 RMK A01 T02840132  RH  039%=      5-min Rain = 0
KEN1 152059Z 05013KT 28/13 A299 RMK A01 T02830131  RH  039%=      5-min Rain = 0
KEN1 152100Z 05012KT 28/13 A299 RMK A01 T02820134  RH  040%=      5-min Rain = 0
KEN1 152101Z 05011KT 28/13 A299 RMK A01 T02810131  RH  039%=      5-min Rain = 0
KEN1 152102Z 06011KT 28/13 A299 RMK A01 T02810132  RH  040%=      5-min Rain = 0
KEN1 152103Z 06009KT 28/13 A299 RMK A01 T02810132  RH  040%=      5-min Rain = 0
KEN1 152104Z 06010KT 28/13 A299 RMK A01 T02800134  RH  040%=      5-min Rain = 0
KEN1 152105Z 05009KT 28/13 A299 RMK A01 T02800130  RH  040%=      5-min Rain = 0
KEN1 152106Z 05009KT 28/13 A299 RMK A01 T02800133  RH  040%=      5-min Rain = 0
KEN1 152107Z 05009KT 28/13 A299 RMK A01 T02810133  RH  040%=      5-min Rain = 0
KEN1 152108Z 06011KT 28/13 A299 RMK A01 T02800134  RH  040%=      5-min Rain = 0
KEN1 152109Z 06012KT 28/14 A299 RMK A01 T02810137  RH  041%=      5-min Rain = 0
KEN1 152110Z 05010KT 28/14 A299 RMK A01 T02810140  RH  042%=      5-min Rain = 0
KEN1 152111Z 04013KT 28/14 A2989 RMK A01 T02810139  RH  042%=      5-min Rain = 0
KEN1 152112Z 05011KT 28/14 A2989 RMK A01 T02820135  RH  041%=      5-min Rain = 0
KEN1 152113Z 05012KT 28/14 A2989 RMK A01 T02830139  RH  041%=      5-min Rain = 0
KEN1 152114Z 05014KT 28/14 A2989 RMK A01 T02830142  RH  042%=      5-min Rain = 0
KEN1 152115Z 05013KT 28/14 A2989 RMK A01 T02820142  RH  042%=      5-min Rain = 0
KEN1 152116Z 06014KT 28/14 A2989 RMK A01 T02820143  RH  043%=      5-min Rain = 0
KEN1 152117Z 06013KT 28/15 A2989 RMK A01 T02810145  RH  043%=      5-min Rain = 0
KEN1 152118Z 06011KT 28/15 A2989 RMK A01 T02800146  RH  044%=      5-min Rain = 0
KEN1 152119Z 06011KT 28/15 A2989 RMK A01 T02800145  RH  044%=      5-min Rain = 0
KEN1 152120Z 06010KT 28/14 A2989 RMK A01 T02800144  RH  043%=      5-min Rain = 0
KEN1 152121Z 06011KT 28/15 A2989 RMK A01 T02800145  RH  044%=      5-min Rain = 0
KEN1 152122Z 05010KT 28/15 A2989 RMK A01 T02800146  RH  044%=      5-min Rain = 0
KEN1 152123Z 06011KT 28/15 A2988 RMK A01 T02800146  RH  044%=      5-min Rain = 0
KEN1 152124Z 05012KT 28/14 A2988 RMK A01 T02840143  RH  042%=      5-min Rain = 0
KEN1 152125Z 05010KT 29/15 A2988 RMK A01 T02890146  RH  042%=      5-min Rain = 0
KEN1 152126Z 06009KT 29/15 A2988 RMK A01 T02940150  RH  041%=      5-min Rain = 0
KEN1 152127Z 06013KT 30/15 A2988 RMK A01 T02990151  RH  041%=      5-min Rain = 0
KEN1 152128Z 06015KT 30/15 A2988 RMK A01 T03000150  RH  040%=      5-min Rain = 0
KEN1 152129Z 06014KT 30/15 A2988 RMK A01 T02980149  RH  040%=      5-min Rain = 0
KEN1 152130Z 07014KT 30/15 A2988 RMK A01 T02970149  RH  041%=      5-min Rain = 0
KEN1 152131Z 07013KT 30/15 A2988 RMK A01 T02950151  RH  041%=      5-min Rain = 0
KEN1 152132Z 07014KT 30/15 A2988 RMK A01 T02950150  RH  041%=      5-min Rain = 0
KEN1 152133Z 07013KT 29/15 A2988 RMK A01 T02920149  RH  042%=      5-min Rain = 0
KEN1 152134Z 07010KT 29/15 A2988 RMK A01 T02890151  RH  043%=      5-min Rain = 0
KEN1 152135Z 08013KT 29/15 A2988 RMK A01 T02870151  RH  044%=      5-min Rain = 0
KEN1 152136Z 08014KT 29/15 A2988 RMK A01 T02850147  RH  043%=      5-min Rain = 0
KEN1 152137Z 07011KT 28/15 A2988 RMK A01 T02820149  RH  044%=      5-min Rain = 0
KEN1 152138Z 07013KT 28/15 A2988 RMK A01 T02800150  RH  045%=      5-min Rain = 0
KEN1 152139Z 07013KT 28/15 A2988 RMK A01 T02790148  RH  045%=      5-min Rain = 0
KEN1 152140Z 07012KT 28/15 A2988 RMK A01 T02770147  RH  045%=      5-min Rain = 0
KEN1 152141Z 07013KT 28/15 A2988 RMK A01 T02760148  RH  045%=      5-min Rain = 0
KEN1 152142Z 07012KT 27/15 A2988 RMK A01 T02740148  RH  046%=      5-min Rain = 0
KEN1 152143Z 07013KT 27/15 A2988 RMK A01 T02730149  RH  046%=      5-min Rain = 0
KEN1 152144Z 07012KT 27/15 A2988 RMK A01 T02720149  RH  047%=      5-min Rain = 0
KEN1 152145Z 06013KT 27/15 A2988 RMK A01 T02710149  RH  047%=      5-min Rain = 0
KEN1 152146Z 06012KT 27/15 A2988 RMK A01 T02710148  RH  047%=      5-min Rain = 0
KEN1 152147Z 06011KT 27/15 A2988 RMK A01 T02700148  RH  047%=      5-min Rain = 0
KEN1 152148Z 07013KT 27/15 A2987 RMK A01 T02690148  RH  047%=      5-min Rain = 0
KEN1 152149Z 06012KT 27/15 A2988 RMK A01 T02690148  RH  048%=      5-min Rain = 0
KEN1 152150Z 07010KT 27/15 A2988 RMK A01 T02680151  RH  049%=      5-min Rain = 0
KEN1 152151Z 06011KT 27/16 A2988 RMK A01 T02660157  RH  051%=      5-min Rain = 0
KEN1 152152Z 06011KT 26/16 A2988 RMK A01 T02630159  RH  053%=      5-min Rain = 0
KEN1 152153Z 06009KT 26/16 A2988 RMK A01 T02600161  RH  055%=      5-min Rain = 0
KEN1 152154Z 06009KT 26/16 A2988 RMK A01 T02560164  RH  057%=      5-min Rain = 0
KEN1 152155Z 06009KT 25/17 A2988 RMK A01 T02530167  RH  059%=      5-min Rain = 0
KEN1 152156Z 06009KT 25/17 A2989 RMK A01 T02510167  RH  059%=      5-min Rain = 0
KEN1 152157Z 05009KT 25/17 A2989 RMK A01 T02490168  RH  060%=      5-min Rain = 0
KEN1 152158Z 05009KT 25/17 A2989 RMK A01 T02480169  RH  061%=      5-min Rain = 0
KEN1 152159Z 05009KT 25/17 A2989 RMK A01 T02450171  RH  063%=      5-min Rain = 0.01
KEN1 152200Z 05009KT 24/17 A2989 RMK A01 T02430170  RH  064%=      5-min Rain = 0
KEN1 152201Z 05010KT 24/17 A2989 RMK A01 T02410174  RH  066%=      5-min Rain = 0.01
KEN1 152202Z 06010KT 24/17 A299 RMK A01 T02390174  RH  067%=      5-min Rain = 0.01
KEN1 152203Z 06011KT 24/17 A2989 RMK A01 T02360172  RH  067%=      5-min Rain = 0.02
KEN1 152204Z 07013KT 23/17 A2989 RMK A01 T02340170  RH  068%=      5-min Rain = 0.02
KEN1 152205Z 07014KT 23/17 A2988 RMK A01 T02300171  RH  069%=      5-min Rain = 0.02
KEN1 152206Z 07014KT 23/17 A2988 RMK A01 T02260171  RH  071%=      5-min Rain = 0
KEN1 152207Z 07014KT 23/17 A2987 RMK A01 T02250168  RH  070%=      5-min Rain = 0
KEN1 152208Z 07012KT 23/17 A2987 RMK A01 T02270167  RH  069%=      5-min Rain = 0
KEN1 152209Z 07011KT 23/17 A2987 RMK A01 T02280171  RH  070%=      5-min Rain = 0
KEN1 152210Z 07009KT 23/17 A2987 RMK A01 T02280172  RH  071%=      5-min Rain = 0
KEN1 152211Z 07010G15KT 23/17 A2987 RMK A01 T02300173  RH  070%=      5-min Rain = 0
KEN1 152212Z 07011KT 23/14 A2987 RMK A01 T02330143  RH  057%=      5-min Rain = 0
KEN1 152213Z 07015KT 24/14 A2987 RMK A01 T02380139  RH  054%=      5-min Rain = 0
KEN1 152214Z 08018KT 24/15 A2987 RMK A01 T02410145  RH  055%=      5-min Rain = 0
KEN1 152215Z 09015KT 24/16 A2987 RMK A01 T02400162  RH  062%=      5-min Rain = 0
KEN1 152216Z 09013KT 24/16 A2987 RMK A01 T02390160  RH  062%=      5-min Rain = 0
KEN1 152217Z 08015KT 24/17 A2987 RMK A01 T02390165  RH  063%=      5-min Rain = 0
KEN1 152218Z 07014KT 24/15 A2987 RMK A01 T02390152  RH  058%=      5-min Rain = 0
KEN1 152219Z 07009KT 25/15 A2987 RMK A01 T02450154  RH  057%=      5-min Rain = 0
KEN1 152220Z 06010KT 24/17 A2987 RMK A01 T02430168  RH  063%=      5-min Rain = 0
KEN1 152221Z 07012KT 24/16 A2987 RMK A01 T02400164  RH  062%=      5-min Rain = 0
KEN1 152222Z 06014KT 24/16 A2987 RMK A01 T02410163  RH  062%=      5-min Rain = 0
KEN1 152223Z 07014KT 24/17 A2987 RMK A01 T02410165  RH  063%=      5-min Rain = 0
KEN1 152224Z 07013KT 24/17 A2987 RMK A01 T02410165  RH  063%=      5-min Rain = 0
KEN1 152225Z 07012KT 24/17 A2987 RMK A01 T02400171  RH  065%=      5-min Rain = 0
KEN1 152226Z 08011KT 24/17 A2987 RMK A01 T02400171  RH  066%=      5-min Rain = 0
KEN1 152227Z 08011KT 24/17 A2987 RMK A01 T02400171  RH  065%=      5-min Rain = 0
KEN1 152228Z 07012KT 24/17 A2987 RMK A01 T02400173  RH  066%=      5-min Rain = 0
KEN1 152229Z 08012KT 24/17 A2987 RMK A01 T02410174  RH  066%=      5-min Rain = 0
KEN1 152230Z 08010KT 24/18 A2987 RMK A01 T02400176  RH  067%=      5-min Rain = 0
KEN1 152231Z 08009KT 24/18 A2988 RMK A01 T02400177  RH  068%=      5-min Rain = 0
KEN1 152232Z 08009KT 24/17 A2988 RMK A01 T02400174  RH  067%=      5-min Rain = 0
KEN1 152233Z 07008KT 24/18 A2988 RMK A01 T02400175  RH  067%=      5-min Rain = 0
KEN1 152234Z 07008KT 24/18 A2989 RMK A01 T02410177  RH  068%=      5-min Rain = 0
KEN1 152235Z 06008KT 24/18 A2989 RMK A01 T02410177  RH  068%=      5-min Rain = 0
KEN1 152236Z 05009KT 24/18 A2988 RMK A01 T02410179  RH  068%=      5-min Rain = 0
KEN1 152237Z 05011KT 24/18 A2988 RMK A01 T02410181  RH  069%=      5-min Rain = 0
KEN1 152238Z 06013KT 24/18 A2987 RMK A01 T02410182  RH  070%=      5-min Rain = 0
KEN1 152239Z 07014KT 24/18 A2987 RMK A01 T02400181  RH  069%=      5-min Rain = 0
KEN1 152240Z 08014KT 24/18 A2987 RMK A01 T02400181  RH  070%=      5-min Rain = 0
KEN1 152241Z 08016KT 24/18 A2986 RMK A01 T02400180  RH  069%=      5-min Rain = 0
KEN1 152242Z 08019KT 24/18 A2986 RMK A01 T02410179  RH  068%=      5-min Rain = 0
KEN1 152243Z 07020KT 24/18 A2986 RMK A01 T02420178  RH  068%=      5-min Rain = 0.01
KEN1 152244Z 06021KT 24/18 A2986 RMK A01 T02420176  RH  067%=      5-min Rain = 0
KEN1 152245Z 05019KT 25/16 A2987 RMK A01 T02450162  RH  060%=      5-min Rain = 0
KEN1 152246Z 06015KT 25/16 A2987 RMK A01 T02490164  RH  059%=      5-min Rain = 0
KEN1 152247Z 07013KT 25/17 A2987 RMK A01 T02500170  RH  061%=      5-min Rain = 0
KEN1 152248Z 07014KT 25/18 A2987 RMK A01 T02490176  RH  064%=      5-min Rain = 0
KEN1 152249Z 08014KT 25/18 A2987 RMK A01 T02490176  RH  064%=      5-min Rain = 0
KEN1 152250Z 08014KT 25/18 A2987 RMK A01 T02490175  RH  063%=      5-min Rain = 0
KEN1 152251Z 07015KT 25/17 A2987 RMK A01 T02510173  RH  062%=      5-min Rain = 0
KEN1 152252Z 07013KT 25/18 A2987 RMK A01 T02510175  RH  062%=      5-min Rain = 0
KEN1 152253Z 07011KT 25/18 A2987 RMK A01 T02520179  RH  064%=      5-min Rain = 0
KEN1 152254Z 07013KT 25/18 A2987 RMK A01 T02520179  RH  064%=      5-min Rain = 0
KEN1 152255Z 07010KT 25/18 A2987 RMK A01 T02530180  RH  064%=      5-min Rain = 0
KEN1 152256Z 06011KT 25/18 A2987 RMK A01 T02540183  RH  065%=      5-min Rain = 0
KEN1 152257Z 06010KT 26/18 A2987 RMK A01 T02560180  RH  063%=      5-min Rain = 0
KEN1 152258Z 05011KT 26/18 A2987 RMK A01 T02580178  RH  061%=      5-min Rain = 0
KEN1 152259Z 04009KT 26/18 A2987 RMK A01 T02610176  RH  059%=      5-min Rain = 0
KEN1 152300Z 04009KT 26/17 A2987 RMK A01 T02630172  RH  057%=      5-min Rain = 0
KEN1 152301Z 05010KT 27/18 A2987 RMK A01 T02660177  RH  058%=      5-min Rain = 0
KEN1 152302Z 05009KT 27/18 A2987 RMK A01 T02670179  RH  059%=      5-min Rain = 0
KEN1 152303Z 07008KT 27/18 A2987 RMK A01 T02680177  RH  057%=      5-min Rain = 0
KEN1 152304Z 07010KT 27/18 A2987 RMK A01 T02690184  RH  059%=      5-min Rain = 0
KEN1 152305Z 06012KT 27/19 A2987 RMK A01 T02710188  RH  060%=      5-min Rain = 0
KEN1 152306Z 07014KT 27/18 A2987 RMK A01 T02720182  RH  058%=      5-min Rain = 0
KEN1 152307Z 07016KT 27/17 A2987 RMK A01 T02710174  RH  055%=      5-min Rain = 0
KEN1 152308Z 06015KT 27/17 A2987 RMK A01 T02680174  RH  056%=      5-min Rain = 0
KEN1 152309Z 06013KT 27/17 A2987 RMK A01 T02660174  RH  057%=      5-min Rain = 0
KEN1 152310Z 07013KT 27/17 A2987 RMK A01 T02650174  RH  057%=      5-min Rain = 0
KEN1 152311Z 06013KT 27/17 A2987 RMK A01 T02650174  RH  057%=      5-min Rain = 0
KEN1 152312Z 06014KT 27/17 A2987 RMK A01 T02660172  RH  056%=      5-min Rain = 0
KEN1 152313Z 08011KT 27/18 A2987 RMK A01 T02670175  RH  057%=      5-min Rain = 0
KEN1 152314Z 07013G18KT 27/18 A2987 RMK A01 T02690181  RH  059%=      5-min Rain = 0
KEN1 152315Z 07013KT 27/17 A2987 RMK A01 T02710173  RH  055%=      5-min Rain = 0
KEN1 152316Z 07013KT 27/17 A2987 RMK A01 T02720174  RH  055%=      5-min Rain = 0
KEN1 152317Z 06014KT 27/17 A2987 RMK A01 T02730172  RH  054%=      5-min Rain = 0
KEN1 152318Z 07017KT 27/17 A2987 RMK A01 T02730174  RH  055%=      5-min Rain = 0
KEN1 152319Z 08015G20KT 27/17 A2987 RMK A01 T02730174  RH  055%=      5-min Rain = 0
KEN1 152320Z 08018KT 27/17 A2987 RMK A01 T02730168  RH  053%=      5-min Rain = 0
KEN1 152321Z 08019KT 27/17 A2986 RMK A01 T02720165  RH  052%=      5-min Rain = 0
KEN1 152322Z 09019KT 27/17 A2986 RMK A01 T02710165  RH  052%=      5-min Rain = 0
KEN1 152323Z 08019KT 27/17 A2986 RMK A01 T02700168  RH  053%=      5-min Rain = 0
KEN1 152324Z 08018KT 27/17 A2986 RMK A01 T02700165  RH  053%=      5-min Rain = 0
KEN1 152325Z 08017KT 27/16 A2987 RMK A01 T02700164  RH  052%=      5-min Rain = 0
KEN1 152326Z 08020KT 27/16 A2986 RMK A01 T02700163  RH  052%=      5-min Rain = 0
KEN1 152327Z 08016KT 27/17 A2987 RMK A01 T02690165  RH  053%=      5-min Rain = 0
KEN1 152328Z 07015KT 27/17 A2986 RMK A01 T02700169  RH  054%=      5-min Rain = 0
KEN1 152329Z 08015KT 27/17 A2986 RMK A01 T02700166  RH  053%=      5-min Rain = 0
KEN1 152330Z 08014G19KT 27/17 A2987 RMK A01 T02700171  RH  055%=      5-min Rain = 0
KEN1 152331Z 08015KT 27/17 A2987 RMK A01 T02710167  RH  053%=      5-min Rain = 0
KEN1 152332Z 08015G21KT 27/17 A2987 RMK A01 T02720168  RH  053%=      5-min Rain = 0
KEN1 152333Z 08018KT 27/17 A2987 RMK A01 T02730166  RH  052%=      5-min Rain = 0
KEN1 152334Z 08018G23KT 27/16 A2987 RMK A01 T02740164  RH  051%=      5-min Rain = 0
KEN1 152335Z 08015G20KT 28/17 A2987 RMK A01 T02750165  RH  051%=      5-min Rain = 0
KEN1 152336Z 08017KT 28/17 A2987 RMK A01 T02750165  RH  051%=      5-min Rain = 0
KEN1 152337Z 08017KT 28/16 A2987 RMK A01 T02760163  RH  050%=      5-min Rain = 0
KEN1 152338Z 08014KT 28/17 A2988 RMK A01 T02770166  RH  051%=      5-min Rain = 0
KEN1 152339Z 08019KT 28/17 A2988 RMK A01 T02790167  RH  051%=      5-min Rain = 0
KEN1 152340Z 09018KT 28/17 A2988 RMK A01 T02790168  RH  051%=      5-min Rain = 0
KEN1 152341Z 08017KT 28/17 A2988 RMK A01 T02790169  RH  051%=      5-min Rain = 0
KEN1 152342Z 08019KT 28/17 A2988 RMK A01 T02780169  RH  052%=      5-min Rain = 0
KEN1 152343Z 09019KT 28/17 A2988 RMK A01 T02750167  RH  052%=      5-min Rain = 0
KEN1 152344Z 09019KT 27/16 A2988 RMK A01 T02730162  RH  051%=      5-min Rain = 0
KEN1 152345Z 09020KT 27/16 A2988 RMK A01 T02720163  RH  051%=      5-min Rain = 0
KEN1 152346Z 09021G26KT 27/16 A2988 RMK A01 T02700160  RH  051%=      5-min Rain = 0
KEN1 152347Z 08020KT 27/16 A2988 RMK A01 T02690160  RH  051%=      5-min Rain = 0
KEN1 152348Z 08019KT 27/16 A2988 RMK A01 T02670161  RH  052%=      5-min Rain = 0
KEN1 152349Z 08018KT 27/16 A2988 RMK A01 T02660161  RH  052%=      5-min Rain = 0
KEN1 152350Z 08018G23KT 27/16 A2988 RMK A01 T02660162  RH  053%=      5-min Rain = 0
KEN1 152351Z 08018KT 27/16 A2988 RMK A01 T02650163  RH  054%=      5-min Rain = 0
KEN1 152352Z 08019KT 27/16 A2988 RMK A01 T02650164  RH  054%=      5-min Rain = 0
KEN1 152353Z 09019KT 26/17 A2988 RMK A01 T02640165  RH  054%=      5-min Rain = 0
KEN1 152354Z 10017KT 26/17 A2988 RMK A01 T02640168  RH  055%=      5-min Rain = 0
KEN1 152355Z 09018KT 26/17 A2988 RMK A01 T02640169  RH  056%=      5-min Rain = 0
KEN1 152356Z 09019KT 26/17 A2988 RMK A01 T02640166  RH  055%=      5-min Rain = 0
KEN1 152357Z 09017KT 26/17 A2988 RMK A01 T02630166  RH  055%=      5-min Rain = 0
KEN1 152358Z 09018KT 26/17 A2988 RMK A01 T02630169  RH  056%=      5-min Rain = 0
KEN1 152359Z 09017KT 26/17 A2988 RMK A01 T02630172  RH  058%=      5-min Rain = 0
KEN1 160000Z 10021KT 26/17 A2988 RMK A01 T02610174  RH  059%=      5-min Rain = 0
KEN1 160001Z 10020KT 26/18 A2988 RMK A01 T02590175  RH  060%=      5-min Rain = 0
KEN1 160002Z 10022KT 26/18 A2988 RMK A01 T02580175  RH  060%=      5-min Rain = 0
KEN1 160003Z 09021KT 26/17 A2988 RMK A01 T02580174  RH  060%=      5-min Rain = 0
KEN1 160004Z 10016KT 26/18 A2988 RMK A01 T02570175  RH  061%=      5-min Rain = 0
KEN1 160005Z 10021G26KT 26/18 A2988 RMK A01 T02570176  RH  061%=      5-min Rain = 0
KEN1 160006Z 10017G22KT 26/17 A2988 RMK A01 T02570174  RH  060%=      5-min Rain = 0
KEN1 160007Z 09024KT 26/17 A2988 RMK A01 T02560174  RH  061%=      5-min Rain = 0
KEN1 160008Z 09022KT 26/17 A2988 RMK A01 T02560173  RH  060%=      5-min Rain = 0
KEN1 160009Z 09020G25KT 26/17 A2988 RMK A01 T02560174  RH  061%=      5-min Rain = 0
KEN1 160010Z 09021KT 26/17 A2988 RMK A01 T02550174  RH  061%=      5-min Rain = 0
KEN1 160011Z 09016KT 26/17 A2988 RMK A01 T02550172  RH  060%=      5-min Rain = 0
KEN1 160012Z 08015KT 26/17 A2988 RMK A01 T02550173  RH  060%=      5-min Rain = 0
KEN1 160013Z 08016KT 26/17 A2988 RMK A01 T02550172  RH  060%=      5-min Rain = 0
KEN1 160014Z 08018KT 26/17 A2987 RMK A01 T02550172  RH  060%=      5-min Rain = 0
KEN1 160015Z 07013KT 26/17 A2988 RMK A01 T02550173  RH  060%=      5-min Rain = 0
KEN1 160016Z 08015G20KT 26/17 A2987 RMK A01 T02550174  RH  061%=      5-min Rain = 0
KEN1 160017Z 08017KT 26/17 A2987 RMK A01 T02550172  RH  060%=      5-min Rain = 0
KEN1 160018Z 08012KT 26/17 A2988 RMK A01 T02560174  RH  060%=      5-min Rain = 0
KEN1 160019Z 08011KT 26/18 A2987 RMK A01 T02580176  RH  061%=      5-min Rain = 0
KEN1 160020Z 08012KT 26/18 A2987 RMK A01 T02600177  RH  060%=      5-min Rain = 0
KEN1 160021Z 09014KT 26/17 A2987 RMK A01 T02620174  RH  058%=      5-min Rain = 0
KEN1 160022Z 10015KT 26/17 A2987 RMK A01 T02630174  RH  058%=      5-min Rain = 0
KEN1 160023Z 09017KT 26/18 A2987 RMK A01 T02640175  RH  058%=      5-min Rain = 0
KEN1 160024Z 09015KT 27/18 A2987 RMK A01 T02650176  RH  058%=      5-min Rain = 0
KEN1 160025Z 09015KT 27/18 A2987 RMK A01 T02660178  RH  059%=      5-min Rain = 0
KEN1 160026Z 08018KT 27/18 A2986 RMK A01 T02660177  RH  058%=      5-min Rain = 0
KEN1 160027Z 08020KT 27/18 A2985 RMK A01 T02660175  RH  057%=      5-min Rain = 0
KEN1 160028Z 08017KT 27/18 A2985 RMK A01 T02660177  RH  058%=      5-min Rain = 0
KEN1 160029Z 08020KT 27/18 A2984 RMK A01 T02670176  RH  057%=      5-min Rain = 0
KEN1 160030Z 08017KT 27/17 A2985 RMK A01 T02660174  RH  057%=      5-min Rain = 0
KEN1 160031Z 08016KT 27/18 A2985 RMK A01 T02660178  RH  058%=      5-min Rain = 0
KEN1 160032Z 08016KT 27/18 A2985 RMK A01 T02650177  RH  058%=      5-min Rain = 0
KEN1 160033Z 08015KT 26/18 A2986 RMK A01 T02640178  RH  059%=      5-min Rain = 0
KEN1 160034Z 09015KT 26/18 A2986 RMK A01 T02630176  RH  059%=      5-min Rain = 0
KEN1 160035Z 09019KT 26/17 A2986 RMK A01 T02630174  RH  058%=      5-min Rain = 0
KEN1 160036Z 09017KT 26/17 A2986 RMK A01 T02620166  RH  056%=      5-min Rain = 0
KEN1 160037Z 08014KT 26/16 A2986 RMK A01 T02610163  RH  055%=      5-min Rain = 0
KEN1 160038Z 10016KT 26/17 A2986 RMK A01 T02610165  RH  056%=      5-min Rain = 0
KEN1 160039Z 09014G19KT 26/16 A2986 RMK A01 T02600159  RH  054%=      5-min Rain = 0
KEN1 160040Z 10015KT 26/16 A2985 RMK A01 T02590160  RH  054%=      5-min Rain = 0
KEN1 160041Z 09015KT 26/16 A2985 RMK A01 T02590158  RH  054%=      5-min Rain = 0
KEN1 160042Z 09014KT 26/16 A2985 RMK A01 T02590155  RH  053%=      5-min Rain = 0
KEN1 160043Z 07012KT 26/16 A2986 RMK A01 T02590158  RH  054%=      5-min Rain = 0
KEN1 160044Z 07011KT 26/16 A2986 RMK A01 T02590158  RH  054%=      5-min Rain = 0
KEN1 160045Z 07012KT 26/16 A2986 RMK A01 T02580157  RH  054%=      5-min Rain = 0
KEN1 160046Z 07011KT 26/16 A2986 RMK A01 T02580155  RH  053%=      5-min Rain = 0
KEN1 160047Z 07010KT 26/16 A2986 RMK A01 T02580156  RH  054%=      5-min Rain = 0
KEN1 160048Z 07010KT 26/16 A2986 RMK A01 T02570156  RH  054%=      5-min Rain = 0
KEN1 160049Z 06010KT 26/16 A2986 RMK A01 T02570155  RH  053%=      5-min Rain = 0
KEN1 160050Z 05010KT 26/16 A2986 RMK A01 T02570157  RH  054%=      5-min Rain = 0
KEN1 160051Z 04009KT 26/16 A2987 RMK A01 T02570157  RH  054%=      5-min Rain = 0
KEN1 160052Z 04008KT 26/16 A2987 RMK A01 T02560158  RH  055%=      5-min Rain = 0
KEN1 160053Z 03009KT 26/16 A2987 RMK A01 T02550161  RH  056%=      5-min Rain = 0
KEN1 160054Z 03009KT 25/16 A2987 RMK A01 T02540162  RH  057%=      5-min Rain = 0
KEN1 160055Z 03009KT 25/16 A2987 RMK A01 T02530162  RH  057%=      5-min Rain = 0
KEN1 160056Z 03008KT 25/16 A2987 RMK A01 T02530164  RH  058%=      5-min Rain = 0
KEN1 160057Z 03008KT 25/17 A2988 RMK A01 T02520166  RH  059%=      5-min Rain = 0
KEN1 160058Z 03009KT 25/17 A2988 RMK A01 T02500167  RH  060%=      5-min Rain = 0
KEN1 160059Z 03009KT 25/17 A2988 RMK A01 T02490167  RH  061%=      5-min Rain = 0
KEN1 160100Z 04009KT 25/17 A2988 RMK A01 T02480166  RH  060%=      5-min Rain = 0
KEN1 160101Z 05008KT 25/17 A2988 RMK A01 T02480166  RH  060%=      5-min Rain = 0
KEN1 160102Z 04007KT 25/17 A2988 RMK A01 T02480166  RH  060%=      5-min Rain = 0
KEN1 160103Z 04007KT 25/17 A2989 RMK A01 T02480167  RH  061%=      5-min Rain = 0
KEN1 160104Z 03006KT 25/17 A2989 RMK A01 T02480167  RH  061%=      5-min Rain = 0
KEN1 160105Z 02006KT 25/17 A2989 RMK A01 T02480169  RH  061%=      5-min Rain = 0
KEN1 160106Z 01007KT 25/17 A299 RMK A01 T02470170  RH  062%=      5-min Rain = 0
KEN1 160107Z 36006KT 25/17 A299 RMK A01 T02460172  RH  063%=      5-min Rain = 0
KEN1 160108Z 36007KT 25/17 A299 RMK A01 T02450174  RH  065%=      5-min Rain = 0
KEN1 160109Z 35008KT 24/18 A299 RMK A01 T02440176  RH  066%=      5-min Rain = 0
KEN1 160110Z 36008KT 24/18 A299 RMK A01 T02440178  RH  067%=      5-min Rain = 0
KEN1 160111Z 36008KT 24/18 A299 RMK A01 T02430180  RH  068%=      5-min Rain = 0
KEN1 160112Z 35009KT 24/18 A299 RMK A01 T02430179  RH  067%=      5-min Rain = 0
KEN1 160113Z 35013G18KT 24/18 A2991 RMK A01 T02430178  RH  067%=      5-min Rain = 0
KEN1 160114Z 34017KT 24/15 A2991 RMK A01 T02430152  RH  057%=      5-min Rain = 0
KEN1 160115Z 35021KT 24/11 A2991 RMK A01 T02380114  RH  046%=      5-min Rain = 0
KEN1 160116Z 36018KT 23/11 A2991 RMK A01 T02330107  RH  045%=      5-min Rain = 0
KEN1 160117Z 36020KT 23/11 A2991 RMK A01 T02300107  RH  046%=      5-min Rain = 0
KEN1 160118Z 00018KT 23/11 A2991 RMK A01 T02280106  RH  046%=      5-min Rain = 0
KEN1 160119Z 01016KT 23/11 A2991 RMK A01 T02270105  RH  046%=      5-min Rain = 0
KEN1 160120Z 01017G22KT 23/10 A2991 RMK A01 T02260103  RH  046%=      5-min Rain = 0
KEN1 160121Z 00014KT 23/10 A299 RMK A01 T02250102  RH  045%=      5-min Rain = 0
KEN1 160122Z 00015KT 23/11 A299 RMK A01 T02250106  RH  047%=      5-min Rain = 0
KEN1 160123Z 00014KT 22/10 A299 RMK A01 T02240102  RH  046%=      5-min Rain = 0
KEN1 160124Z 35014KT 22/10 A299 RMK A01 T02240104  RH  046%=      5-min Rain = 0
KEN1 160125Z 36015KT 22/10 A299 RMK A01 T02230099  RH  045%=      5-min Rain = 0
KEN1 160126Z 35013KT 22/10 A299 RMK A01 T02230100  RH  046%=      5-min Rain = 0
KEN1 160127Z 35014KT 22/10 A299 RMK A01 T02220099  RH  046%=      5-min Rain = 0
KEN1 160128Z 36016KT 22/10 A299 RMK A01 T02210096  RH  045%=      5-min Rain = 0
KEN1 160129Z 01012KT 22/10 A2989 RMK A01 T02220095  RH  045%=      5-min Rain = 0
KEN1 160130Z 00010KT 22/10 A2989 RMK A01 T02210098  RH  045%=      5-min Rain = 0
KEN1 160131Z 00010KT 22/10 A2989 RMK A01 T02200099  RH  046%=      5-min Rain = 0
KEN1 160132Z 01008KT 22/10 A2989 RMK A01 T02190098  RH  046%=      5-min Rain = 0
KEN1 160133Z 01008KT 22/10 A2989 RMK A01 T02180098  RH  046%=      5-min Rain = 0
KEN1 160134Z 01008KT 22/10 A2989 RMK A01 T02170098  RH  046%=      5-min Rain = 0
KEN1 160135Z 00009KT 22/10 A2989 RMK A01 T02170096  RH  046%=      5-min Rain = 0
KEN1 160136Z 35008KT 22/10 A2989 RMK A01 T02170095  RH  046%=      5-min Rain = 0
KEN1 160137Z 35008KT 22/10 A2989 RMK A01 T02170098  RH  047%=      5-min Rain = 0
KEN1 160138Z 34009KT 22/10 A2989 RMK A01 T02180098  RH  046%=      5-min Rain = 0
KEN1 160139Z 35008KT 22/10 A2989 RMK A01 T02190096  RH  046%=      5-min Rain = 0
KEN1 160140Z 35007KT 22/10 A2989 RMK A01 T02190096  RH  046%=      5-min Rain = 0
KEN1 160141Z 35008KT 22/10 A2989 RMK A01 T02190099  RH  047%=      5-min Rain = 0
KEN1 160142Z 35007KT 22/10 A2989 RMK A01 T02190099  RH  047%=      5-min Rain = 0
KEN1 160143Z 35007KT 22/10 A2989 RMK A01 T02180102  RH  048%=      5-min Rain = 0
KEN1 160144Z 35008KT 22/10 A2989 RMK A01 T02180099  RH  047%=      5-min Rain = 0
KEN1 160145Z 35008KT 22/10 A2989 RMK A01 T02180099  RH  047%=      5-min Rain = 0
KEN1 160146Z 35008KT 22/10 A299 RMK A01 T02170101  RH  048%=      5-min Rain = 0
KEN1 160147Z 35008KT 22/10 A299 RMK A01 T02170103  RH  048%=      5-min Rain = 0
KEN1 160148Z 35009KT 22/10 A299 RMK A01 T02160102  RH  048%=      5-min Rain = 0
KEN1 160149Z 35010KT 22/10 A2991 RMK A01 T02160100  RH  048%=      5-min Rain = 0
KEN1 160150Z 36010KT 22/10 A2991 RMK A01 T02160101  RH  048%=      5-min Rain = 0
KEN1 160151Z 00010KT 22/10 A2991 RMK A01 T02160103  RH  049%=      5-min Rain = 0
KEN1 160152Z 01009KT 22/10 A2992 RMK A01 T02150103  RH  049%=      5-min Rain = 0
KEN1 160153Z 01010KT 21/10 A2992 RMK A01 T02120104  RH  050%=      5-min Rain = 0
KEN1 160154Z 01010KT 21/10 A2992 RMK A01 T02100104  RH  051%=      5-min Rain = 0
KEN1 160155Z 01010KT 21/11 A2992 RMK A01 T02080106  RH  052%=      5-min Rain = 0
KEN1 160156Z 00010KT 21/11 A2992 RMK A01 T02070106  RH  052%=      5-min Rain = 0
KEN1 160157Z 01010KT 21/11 A2992 RMK A01 T02070106  RH  053%=      5-min Rain = 0
KEN1 160158Z 00010KT 21/11 A2992 RMK A01 T02060106  RH  053%=      5-min Rain = 0
KEN1 160159Z 00011KT 21/11 A2993 RMK A01 T02060106  RH  053%=      5-min Rain = 0
KEN1 160200Z 00011KT 21/11 A2993 RMK A01 T02060105  RH  052%=      5-min Rain = 0
KEN1 160201Z 00010KT 21/11 A2992 RMK A01 T02060105  RH  052%=      5-min Rain = 0
KEN1 160202Z 01010KT 21/10 A2992 RMK A01 T02070103  RH  051%=      5-min Rain = 0
KEN1 160203Z 01010KT 21/10 A2992 RMK A01 T02080103  RH  051%=      5-min Rain = 0
KEN1 160204Z 02010KT 21/10 A2992 RMK A01 T02080103  RH  051%=      5-min Rain = 0
KEN1 160205Z 02009KT 21/11 A2992 RMK A01 T02080105  RH  052%=      5-min Rain = 0
KEN1 160206Z 02010KT 21/11 A2993 RMK A01 T02080105  RH  052%=      5-min Rain = 0
KEN1 160207Z 02009KT 21/11 A2993 RMK A01 T02080105  RH  052%=      5-min Rain = 0
KEN1 160208Z 01009KT 21/11 A2993 RMK A01 T02070105  RH  052%=      5-min Rain = 0
KEN1 160209Z 01008KT 21/11 A2993 RMK A01 T02070107  RH  052%=      5-min Rain = 0
KEN1 160210Z 01008KT 21/11 A2993 RMK A01 T02070108  RH  053%=      5-min Rain = 0
KEN1 160211Z 36009KT 21/11 A2993 RMK A01 T02060109  RH  054%=      5-min Rain = 0
KEN1 160212Z 01010KT 21/11 A2993 RMK A01 T02060107  RH  053%=      5-min Rain = 0
KEN1 160213Z 01010KT 21/11 A2993 RMK A01 T02070105  RH  052%=      5-min Rain = 0
KEN1 160214Z 02009KT 21/11 A2994 RMK A01 T02080106  RH  052%=      5-min Rain = 0
KEN1 160215Z 03009KT 21/11 A2994 RMK A01 T02080110  RH  054%=      5-min Rain = 0
KEN1 160216Z 03012KT 21/11 A2994 RMK A01 T02060108  RH  053%=      5-min Rain = 0
KEN1 160217Z 03012KT 21/11 A2994 RMK A01 T02060107  RH  053%=      5-min Rain = 0
KEN1 160218Z 04013KT 21/11 A2994 RMK A01 T02070107  RH  053%=      5-min Rain = 0
KEN1 160219Z 03013KT 21/11 A2994 RMK A01 T02080106  RH  052%=      5-min Rain = 0
KEN1 160220Z 03011KT 21/11 A2994 RMK A01 T02090106  RH  052%=      5-min Rain = 0
KEN1 160221Z 02014KT 21/11 A2994 RMK A01 T02100105  RH  051%=      5-min Rain = 0
KEN1 160222Z 02014KT 21/10 A2994 RMK A01 T02120104  RH  050%=      5-min Rain = 0
KEN1 160223Z 01014KT 21/10 A2994 RMK A01 T02130104  RH  050%=      5-min Rain = 0
KEN1 160224Z 01013KT 21/10 A2994 RMK A01 T02130103  RH  050%=      5-min Rain = 0
KEN1 160225Z 01012KT 21/10 A2994 RMK A01 T02130104  RH  050%=      5-min Rain = 0
KEN1 160226Z 02013KT 21/11 A2994 RMK A01 T02130108  RH  051%=      5-min Rain = 0
KEN1 160227Z 01013KT 21/11 A2994 RMK A01 T02110107  RH  051%=      5-min Rain = 0
KEN1 160228Z 02015KT 21/11 A2994 RMK A01 T02100105  RH  051%=      5-min Rain = 0
KEN1 160229Z 02015KT 21/11 A2994 RMK A01 T02100105  RH  051%=      5-min Rain = 0
KEN1 160230Z 02017KT 21/10 A2994 RMK A01 T02100104  RH  051%=      5-min Rain = 0
KEN1 160231Z 02014KT 21/11 A2994 RMK A01 T02100105  RH  051%=      5-min Rain = 0
KEN1 160232Z 03016KT 21/11 A2994 RMK A01 T02090107  RH  052%=      5-min Rain = 0
KEN1 160233Z 03020G26KT 21/11 A2994 RMK A01 T02080109  RH  053%=      5-min Rain = 0
KEN1 160234Z 03019KT 21/11 A2994 RMK A01 T02050114  RH  056%=      5-min Rain = 0
KEN1 160235Z 03015G20KT 20/12 A2994 RMK A01 T02000117  RH  059%=      5-min Rain = 0
KEN1 160236Z 03017KT 20/12 A2994 RMK A01 T01960118  RH  061%=      5-min Rain = 0
KEN1 160237Z 03015KT 19/12 A2993 RMK A01 T01930119  RH  062%=      5-min Rain = 0
KEN1 160238Z 03015KT 19/12 A2993 RMK A01 T01910119  RH  063%=      5-min Rain = 0
KEN1 160239Z 02016KT 19/12 A2993 RMK A01 T01900120  RH  064%=      5-min Rain = 0
KEN1 160240Z 03015KT 19/12 A2993 RMK A01 T01880120  RH  064%=      5-min Rain = 0
KEN1 160241Z 03014KT 19/12 A2993 RMK A01 T01870120  RH  065%=      5-min Rain = 0
KEN1 160242Z 03012KT 19/12 A2993 RMK A01 T01860121  RH  066%=      5-min Rain = 0
KEN1 160243Z 03014KT 18/12 A2993 RMK A01 T01840121  RH  067%=      5-min Rain = 0
KEN1 160244Z 03015KT 18/12 A2993 RMK A01 T01830120  RH  067%=      5-min Rain = 0
KEN1 160245Z 03013KT 18/12 A2993 RMK A01 T01830120  RH  066%=      5-min Rain = 0
KEN1 160246Z 04014KT 18/12 A2993 RMK A01 T01830119  RH  066%=      5-min Rain = 0
KEN1 160247Z 04013KT 18/12 A2993 RMK A01 T01830119  RH  066%=      5-min Rain = 0
KEN1 160248Z 03011KT 18/12 A2993 RMK A01 T01820121  RH  067%=      5-min Rain = 0
KEN1 160249Z 03013KT 18/12 A2993 RMK A01 T01820120  RH  067%=      5-min Rain = 0
KEN1 160250Z 03013KT 18/12 A2993 RMK A01 T01810117  RH  066%=      5-min Rain = 0
KEN1 160251Z 03012KT 18/12 A2993 RMK A01 T01820117  RH  066%=      5-min Rain = 0
KEN1 160252Z 03012KT 18/12 A2993 RMK A01 T01820117  RH  066%=      5-min Rain = 0
KEN1 160253Z 03011KT 18/12 A2993 RMK A01 T01820116  RH  065%=      5-min Rain = 0
KEN1 160254Z 03011KT 18/11 A2993 RMK A01 T01820114  RH  065%=      5-min Rain = 0
KEN1 160255Z 03011KT 18/11 A2993 RMK A01 T01820113  RH  064%=      5-min Rain = 0
KEN1 160256Z 03009KT 18/11 A2993 RMK A01 T01820114  RH  064%=      5-min Rain = 0
KEN1 160257Z 04010KT 18/11 A2993 RMK A01 T01820114  RH  065%=      5-min Rain = 0
KEN1 160258Z 04009KT 18/11 A2993 RMK A01 T01810114  RH  065%=      5-min Rain = 0
KEN1 160259Z 04010KT 18/11 A2993 RMK A01 T01810114  RH  065%=      5-min Rain = 0
KEN1 160300Z 04009KT 18/11 A2993 RMK A01 T01810114  RH  065%=      5-min Rain = 0
KEN1 160301Z 04011KT 18/11 A2994 RMK A01 T01800114  RH  065%=      5-min Rain = 0
KEN1 160302Z 04010KT 18/11 A2994 RMK A01 T01800112  RH  064%=      5-min Rain = 0
KEN1 160303Z 04010KT 18/11 A2994 RMK A01 T01800111  RH  064%=      5-min Rain = 0
KEN1 160304Z 04011KT 18/11 A2994 RMK A01 T01800110  RH  064%=      5-min Rain = 0
KEN1 160305Z 04012KT 18/11 A2994 RMK A01 T01810108  RH  062%=      5-min Rain = 0
KEN1 160306Z 03011KT 18/11 A2994 RMK A01 T01820108  RH  062%=      5-min Rain = 0
KEN1 160307Z 03012KT 18/11 A2994 RMK A01 T01820109  RH  063%=      5-min Rain = 0
KEN1 160308Z 03012KT 18/11 A2994 RMK A01 T01820109  RH  063%=      5-min Rain = 0
KEN1 160309Z 03011KT 18/11 A2994 RMK A01 T01810110  RH  063%=      5-min Rain = 0
KEN1 160310Z 03011KT 18/11 A2994 RMK A01 T01810109  RH  063%=      5-min Rain = 0
KEN1 160311Z 02011KT 18/11 A2994 RMK A01 T01800109  RH  063%=      5-min Rain = 0
KEN1 160312Z 02010KT 18/11 A2995 RMK A01 T01800109  RH  063%=      5-min Rain = 0
KEN1 160313Z 02011KT 18/11 A2995 RMK A01 T01800109  RH  063%=      5-min Rain = 0
KEN1 160314Z 02011KT 18/11 A2995 RMK A01 T01790109  RH  063%=      5-min Rain = 0
KEN1 160315Z 02011KT 18/11 A2995 RMK A01 T01790109  RH  064%=      5-min Rain = 0
KEN1 160316Z 02011KT 18/11 A2995 RMK A01 T01790108  RH  063%=      5-min Rain = 0
KEN1 160317Z 01010KT 18/11 A2995 RMK A01 T01790109  RH  063%=      5-min Rain = 0
KEN1 160318Z 02010KT 18/11 A2995 RMK A01 T01790108  RH  063%=      5-min Rain = 0
KEN1 160319Z 01010KT 18/11 A2995 RMK A01 T01790108  RH  063%=      5-min Rain = 0
KEN1 160320Z 01010KT 18/11 A2995 RMK A01 T01790108  RH  063%=      5-min Rain = 0
KEN1 160321Z 01010KT 18/11 A2996 RMK A01 T01780108  RH  063%=      5-min Rain = 0
KEN1 160322Z 01009KT 18/11 A2996 RMK A01 T01780108  RH  064%=      5-min Rain = 0
KEN1 160323Z 01010KT 18/11 A2996 RMK A01 T01780108  RH  063%=      5-min Rain = 0
KEN1 160324Z 01010KT 18/11 A2996 RMK A01 T01770108  RH  064%=      5-min Rain = 0
KEN1 160325Z 01009KT 18/11 A2996 RMK A01 T01770108  RH  064%=      5-min Rain = 0
KEN1 160326Z 01009KT 18/11 A2996 RMK A01 T01770107  RH  064%=      5-min Rain = 0
KEN1 160327Z 01009KT 18/11 A2996 RMK A01 T01770108  RH  064%=      5-min Rain = 0
KEN1 160328Z 01008KT 18/11 A2996 RMK A01 T01760108  RH  064%=      5-min Rain = 0
KEN1 160329Z 00008KT 18/11 A2996 RMK A01 T01760108  RH  064%=      5-min Rain = 0
KEN1 160330Z 00008KT 18/11 A2996 RMK A01 T01760107  RH  064%=      5-min Rain = 0
KEN1 160331Z 36008KT 18/11 A2996 RMK A01 T01760108  RH  064%=      5-min Rain = 0
KEN1 160332Z 36007KT 18/11 A2996 RMK A01 T01760108  RH  064%=      5-min Rain = 0
KEN1 160333Z 36007KT 18/11 A2996 RMK A01 T01760109  RH  065%=      5-min Rain = 0
KEN1 160334Z 35007KT 18/11 A2996 RMK A01 T01760109  RH  065%=      5-min Rain = 0
KEN1 160335Z 00007KT 18/11 A2996 RMK A01 T01750110  RH  066%=      5-min Rain = 0
KEN1 160336Z 36007KT 18/11 A2996 RMK A01 T01750111  RH  066%=      5-min Rain = 0
KEN1 160337Z 00007KT 17/11 A2996 RMK A01 T01740110  RH  066%=      5-min Rain = 0
KEN1 160338Z 00007KT 17/11 A2996 RMK A01 T01740110  RH  066%=      5-min Rain = 0
KEN1 160339Z 00007KT 17/11 A2996 RMK A01 T01730111  RH  067%=      5-min Rain = 0
KEN1 160340Z 01007KT 17/11 A2996 RMK A01 T01720110  RH  067%=      5-min Rain = 0
KEN1 160341Z 00007KT 17/11 A2996 RMK A01 T01710110  RH  068%=      5-min Rain = 0
KEN1 160342Z 00007KT 17/11 A2996 RMK A01 T01700111  RH  068%=      5-min Rain = 0
KEN1 160343Z 00007KT 17/11 A2996 RMK A01 T01690111  RH  068%=      5-min Rain = 0
KEN1 160344Z 00007KT 17/11 A2996 RMK A01 T01690111  RH  069%=      5-min Rain = 0
KEN1 160345Z 00007KT 17/11 A2997 RMK A01 T01680112  RH  069%=      5-min Rain = 0
KEN1 160346Z 00007KT 17/11 A2997 RMK A01 T01680111  RH  069%=      5-min Rain = 0
KEN1 160347Z 00007KT 17/11 A2997 RMK A01 T01680111  RH  069%=      5-min Rain = 0
KEN1 160348Z 36006KT 17/11 A2997 RMK A01 T01670113  RH  070%=      5-min Rain = 0
KEN1 160349Z 35005KT 17/11 A2997 RMK A01 T01670113  RH  071%=      5-min Rain = 0
KEN1 160350Z 35005KT 17/11 A2997 RMK A01 T01670113  RH  071%=      5-min Rain = 0
KEN1 160351Z 35005KT 17/11 A2997 RMK A01 T01660113  RH  071%=      5-min Rain = 0
KEN1 160352Z 35004KT 17/11 A2997 RMK A01 T01670114  RH  071%=      5-min Rain = 0
KEN1 160353Z 34005KT 17/11 A2997 RMK A01 T01670114  RH  071%=      5-min Rain = 0
KEN1 160354Z 35004KT 17/11 A2997 RMK A01 T01670114  RH  071%=      5-min Rain = 0
KEN1 160355Z 00005KT 17/12 A2998 RMK A01 T01670115  RH  071%=      5-min Rain = 0
KEN1 160356Z 01005KT 17/12 A2998 RMK A01 T01670115  RH  071%=      5-min Rain = 0
KEN1 160357Z 01006KT 17/11 A2998 RMK A01 T01660113  RH  071%=      5-min Rain = 0
KEN1 160358Z 01007KT 16/11 A2998 RMK A01 T01640113  RH  072%=      5-min Rain = 0
KEN1 160359Z 01007KT 16/11 A2998 RMK A01 T01630113  RH  072%=      5-min Rain = 0
KEN1 160400Z 01007KT 16/11 A2998 RMK A01 T01630113  RH  073%=      5-min Rain = 0
KEN1 160401Z 01006KT 16/11 A2998 RMK A01 T01610113  RH  073%=      5-min Rain = 0
KEN1 160402Z 01007KT 16/11 A2998 RMK A01 T01610114  RH  073%=      5-min Rain = 0
KEN1 160403Z 01006KT 16/11 A2998 RMK A01 T01610114  RH  073%=      5-min Rain = 0
KEN1 160404Z 00006KT 16/11 A2998 RMK A01 T01610114  RH  073%=      5-min Rain = 0
KEN1 160405Z 36006KT 16/11 A2998 RMK A01 T01610114  RH  073%=      5-min Rain = 0
KEN1 160406Z 35006KT 16/12 A2999 RMK A01 T01620115  RH  074%=      5-min Rain = 0
KEN1 160407Z 35006KT 16/12 A2999 RMK A01 T01620115  RH  074%=      5-min Rain = 0
KEN1 160408Z 36006KT 16/11 A2999 RMK A01 T01630114  RH  073%=      5-min Rain = 0
KEN1 160409Z 36006KT 16/12 A2999 RMK A01 T01640116  RH  073%=      5-min Rain = 0
KEN1 160410Z 35006KT 16/12 A2999 RMK A01 T01640116  RH  073%=      5-min Rain = 0
KEN1 160411Z 35007KT 16/12 A2999 RMK A01 T01640116  RH  073%=      5-min Rain = 0
KEN1 160412Z 35007KT 16/12 A2999 RMK A01 T01640117  RH  074%=      5-min Rain = 0
KEN1 160413Z 34008KT 16/12 A2999 RMK A01 T01640119  RH  074%=      5-min Rain = 0
KEN1 160414Z 34007KT 16/12 A2999 RMK A01 T01640118  RH  074%=      5-min Rain = 0
KEN1 160415Z 34008KT 16/12 A2999 RMK A01 T01640118  RH  074%=      5-min Rain = 0
KEN1 160416Z 34007KT 16/12 A2999 RMK A01 T01640117  RH  074%=      5-min Rain = 0
KEN1 160417Z 33008KT 16/12 A2999 RMK A01 T01640117  RH  074%=      5-min Rain = 0
KEN1 160418Z 33008KT 16/12 A30 RMK A01 T01640117  RH  074%=      5-min Rain = 0
KEN1 160419Z 32009KT 16/12 A30 RMK A01 T01640118  RH  074%=      5-min Rain = 0
KEN1 160420Z 33009KT 16/12 A30 RMK A01 T01640117  RH  074%=      5-min Rain = 0
KEN1 160421Z 32009KT 17/12 A30 RMK A01 T01650115  RH  072%=      5-min Rain = 0
KEN1 160422Z 33009KT 17/11 A30 RMK A01 T01670114  RH  071%=      5-min Rain = 0
KEN1 160423Z 33008KT 17/11 A30 RMK A01 T01680114  RH  070%=      5-min Rain = 0
KEN1 160424Z 34007KT 17/11 A30 RMK A01 T01680114  RH  071%=      5-min Rain = 0
KEN1 160425Z 34008KT 17/11 A30 RMK A01 T01680113  RH  070%=      5-min Rain = 0
KEN1 160426Z 34007KT 17/11 A30 RMK A01 T01680113  RH  070%=      5-min Rain = 0
KEN1 160427Z 33007KT 17/11 A30 RMK A01 T01680112  RH  070%=      5-min Rain = 0
KEN1 160428Z 34007KT 17/11 A30 RMK A01 T01680113  RH  070%=      5-min Rain = 0
KEN1 160429Z 33007KT 17/11 A30 RMK A01 T01680114  RH  070%=      5-min Rain = 0
KEN1 160430Z 33006KT 17/11 A30 RMK A01 T01680114  RH  071%=      5-min Rain = 0
KEN1 160431Z 33006KT 17/11 A30 RMK A01 T01680114  RH  071%=      5-min Rain = 0
KEN1 160432Z 33005KT 17/11 A30 RMK A01 T01670114  RH  071%=      5-min Rain = 0
KEN1 160433Z 33005KT 17/11 A30 RMK A01 T01660114  RH  071%=      5-min Rain = 0
KEN1 160434Z 33005KT 17/12 A30 RMK A01 T01660115  RH  072%=      5-min Rain = 0
KEN1 160435Z 33005KT 17/12 A30 RMK A01 T01660115  RH  072%=      5-min Rain = 0
KEN1 160436Z 33005KT 17/12 A30 RMK A01 T01660115  RH  072%=      5-min Rain = 0
KEN1 160437Z 33005KT 17/12 A30 RMK A01 T01660116  RH  072%=      5-min Rain = 0
KEN1 160438Z 33005KT 17/12 A30 RMK A01 T01660115  RH  072%=      5-min Rain = 0
KEN1 160439Z 33006KT 17/12 A30 RMK A01 T01660115  RH  072%=      5-min Rain = 0
KEN1 160440Z 32006KT 17/12 A30 RMK A01 T01660115  RH  072%=      5-min Rain = 0
KEN1 160441Z 32008KT 17/12 A30 RMK A01 T01660115  RH  071%=      5-min Rain = 0
KEN1 160442Z 32008KT 17/11 A30 RMK A01 T01680112  RH  070%=      5-min Rain = 0
KEN1 160443Z 32008KT 17/11 A30 RMK A01 T01700112  RH  069%=      5-min Rain = 0
KEN1 160444Z 33008KT 17/11 A30 RMK A01 T01710113  RH  068%=      5-min Rain = 0
KEN1 160445Z 33008KT 17/11 A2999 RMK A01 T01710112  RH  068%=      5-min Rain = 0
KEN1 160446Z 34008KT 17/11 A2999 RMK A01 T01720113  RH  068%=      5-min Rain = 0
KEN1 160447Z 33008KT 17/11 A2999 RMK A01 T01720113  RH  068%=      5-min Rain = 0
KEN1 160448Z 32007KT 17/11 A2999 RMK A01 T01720113  RH  068%=      5-min Rain = 0
KEN1 160449Z 32008KT 17/11 A2999 RMK A01 T01720114  RH  069%=      5-min Rain = 0
KEN1 160450Z 32008KT 17/11 A2999 RMK A01 T01720113  RH  068%=      5-min Rain = 0
KEN1 160451Z 32009KT 17/11 A2999 RMK A01 T01720114  RH  068%=      5-min Rain = 0
KEN1 160452Z 32009KT 17/11 A2999 RMK A01 T01730114  RH  068%=      5-min Rain = 0
KEN1 160453Z 33009KT 17/11 A2999 RMK A01 T01730113  RH  068%=      5-min Rain = 0
KEN1 160454Z 32008KT 17/11 A2999 RMK A01 T01740113  RH  067%=      5-min Rain = 0
KEN1 160455Z 33009KT 17/11 A2999 RMK A01 T01740113  RH  067%=      5-min Rain = 0
KEN1 160456Z 32009KT 17/11 A2999 RMK A01 T01740113  RH  067%=      5-min Rain = 0
KEN1 160457Z 33009KT 18/11 A2999 RMK A01 T01750114  RH  067%=      5-min Rain = 0
KEN1 160458Z 32008KT 17/11 A2999 RMK A01 T01740114  RH  068%=      5-min Rain = 0
KEN1 160459Z 32007KT 17/12 A2999 RMK A01 T01740115  RH  068%=      5-min Rain = 0

Page generated in 0.0813 seconds.